Observation data for Rotan on 01/18/2019      Previous  Date  Next       Current Mesonet Observations  Soil Data  Daily Summary Page  Observations in Plain Language
KRO1 180600Z 18011KT 08/03 A3004 RMK A01 T00810034  RH  072%=      5-min Rain = 0
KRO1 180601Z 18010KT 08/03 A3004 RMK A01 T00800034  RH  073%=      5-min Rain = 0
KRO1 180602Z 18010KT 08/03 A3003 RMK A01 T00800034  RH  073%=      5-min Rain = 0
KRO1 180603Z 18010KT 08/03 A3003 RMK A01 T00790034  RH  073%=      5-min Rain = 0
KRO1 180604Z 18011KT 08/03 A3003 RMK A01 T00780034  RH  074%=      5-min Rain = 0
KRO1 180605Z 18011KT 08/03 A3003 RMK A01 T00780034  RH  074%=      5-min Rain = 0
KRO1 180606Z 18011KT 08/03 A3003 RMK A01 T00770034  RH  074%=      5-min Rain = 0
KRO1 180607Z 18011KT 08/03 A3003 RMK A01 T00770034  RH  074%=      5-min Rain = 0
KRO1 180608Z 18011KT 08/03 A3003 RMK A01 T00770034  RH  074%=      5-min Rain = 0
KRO1 180609Z 18011KT 08/03 A3003 RMK A01 T00780034  RH  074%=      5-min Rain = 0
KRO1 180610Z 18011KT 08/03 A3003 RMK A01 T00780034  RH  074%=      5-min Rain = 0
KRO1 180611Z 18011KT 08/03 A3003 RMK A01 T00780034  RH  074%=      5-min Rain = 0
KRO1 180612Z 18011KT 08/03 A3003 RMK A01 T00780034  RH  074%=      5-min Rain = 0
KRO1 180613Z 18011KT 08/03 A3003 RMK A01 T00780034  RH  074%=      5-min Rain = 0
KRO1 180614Z 18011KT 08/03 A3003 RMK A01 T00780034  RH  074%=      5-min Rain = 0
KRO1 180615Z 18011KT 08/03 A3003 RMK A01 T00780034  RH  074%=      5-min Rain = 0
KRO1 180616Z 18011KT 08/03 A3003 RMK A01 T00790034  RH  074%=      5-min Rain = 0
KRO1 180617Z 18010KT 08/03 A3002 RMK A01 T00780034  RH  074%=      5-min Rain = 0
KRO1 180618Z 18010KT 08/03 A3002 RMK A01 T00780034  RH  074%=      5-min Rain = 0
KRO1 180619Z 18010KT 08/03 A3002 RMK A01 T00780034  RH  074%=      5-min Rain = 0
KRO1 180620Z 18011KT 08/03 A3002 RMK A01 T00780033  RH  074%=      5-min Rain = 0
KRO1 180621Z 18011KT 08/03 A3002 RMK A01 T00770034  RH  074%=      5-min Rain = 0
KRO1 180622Z 18010KT 08/03 A3002 RMK A01 T00770033  RH  074%=      5-min Rain = 0
KRO1 180623Z 18010KT 08/03 A3002 RMK A01 T00770033  RH  074%=      5-min Rain = 0
KRO1 180624Z 18010KT 08/03 A3002 RMK A01 T00770033  RH  074%=      5-min Rain = 0
KRO1 180625Z 18010KT 08/03 A3002 RMK A01 T00770033  RH  074%=      5-min Rain = 0
KRO1 180626Z 18010KT 08/03 A3002 RMK A01 T00770033  RH  074%=      5-min Rain = 0
KRO1 180627Z 18010KT 08/03 A3002 RMK A01 T00780034  RH  074%=      5-min Rain = 0
KRO1 180628Z 18010KT 08/03 A3002 RMK A01 T00780034  RH  074%=      5-min Rain = 0
KRO1 180629Z 18010KT 08/03 A3002 RMK A01 T00780034  RH  074%=      5-min Rain = 0
KRO1 180630Z 18009KT 08/03 A3002 RMK A01 T00780034  RH  073%=      5-min Rain = 0
KRO1 180631Z 18009KT 08/03 A3002 RMK A01 T00790034  RH  073%=      5-min Rain = 0
KRO1 180632Z 18009KT 08/03 A3002 RMK A01 T00790034  RH  073%=      5-min Rain = 0
KRO1 180633Z 18008KT 08/03 A3002 RMK A01 T00790034  RH  073%=      5-min Rain = 0
KRO1 180634Z 18008KT 08/03 A3002 RMK A01 T00790034  RH  073%=      5-min Rain = 0
KRO1 180635Z 19008KT 08/03 A3002 RMK A01 T00790034  RH  073%=      5-min Rain = 0
KRO1 180636Z 19008KT 08/03 A3002 RMK A01 T00790034  RH  073%=      5-min Rain = 0
KRO1 180637Z 19008KT 08/03 A3003 RMK A01 T00800034  RH  073%=      5-min Rain = 0
KRO1 180638Z 19007KT 08/04 A3003 RMK A01 T00800035  RH  073%=      5-min Rain = 0
KRO1 180639Z 19007KT 08/03 A3003 RMK A01 T00800034  RH  073%=      5-min Rain = 0
KRO1 180640Z 19006KT 08/04 A3003 RMK A01 T00800035  RH  073%=      5-min Rain = 0
KRO1 180641Z 20006KT 08/04 A3003 RMK A01 T00800035  RH  073%=      5-min Rain = 0
KRO1 180642Z 20006KT 08/03 A3003 RMK A01 T00790034  RH  073%=      5-min Rain = 0
KRO1 180643Z 20006KT 08/03 A3002 RMK A01 T00780033  RH  073%=      5-min Rain = 0
KRO1 180644Z 19006KT 08/03 A3002 RMK A01 T00770033  RH  074%=      5-min Rain = 0
KRO1 180645Z 19006KT 08/03 A3002 RMK A01 T00760033  RH  074%=      5-min Rain = 0
KRO1 180646Z 19006KT 08/03 A3002 RMK A01 T00750033  RH  075%=      5-min Rain = 0
KRO1 180647Z 19006KT 07/03 A3002 RMK A01 T00740033  RH  075%=      5-min Rain = 0
KRO1 180648Z 18007KT 07/03 A3002 RMK A01 T00740033  RH  075%=      5-min Rain = 0
KRO1 180649Z 18007KT 07/03 A3002 RMK A01 T00730033  RH  076%=      5-min Rain = 0
KRO1 180650Z 18008KT 07/03 A3002 RMK A01 T00730033  RH  076%=      5-min Rain = 0
KRO1 180651Z 18008KT 07/03 A3002 RMK A01 T00720032  RH  076%=      5-min Rain = 0
KRO1 180652Z 18008KT 07/03 A3002 RMK A01 T00710031  RH  076%=      5-min Rain = 0
KRO1 180653Z 18008KT 07/03 A3002 RMK A01 T00700031  RH  076%=      5-min Rain = 0
KRO1 180654Z 18008KT 07/03 A3002 RMK A01 T00690031  RH  077%=      5-min Rain = 0
KRO1 180655Z 18008KT 07/03 A3002 RMK A01 T00690031  RH  077%=      5-min Rain = 0
KRO1 180656Z 18008KT 07/03 A3002 RMK A01 T00680031  RH  077%=      5-min Rain = 0
KRO1 180657Z 18008KT 07/03 A3002 RMK A01 T00680031  RH  077%=      5-min Rain = 0
KRO1 180658Z 18009KT 07/03 A3002 RMK A01 T00670031  RH  077%=      5-min Rain = 0
KRO1 180659Z 18009KT 07/03 A3002 RMK A01 T00670031  RH  078%=      5-min Rain = 0
KRO1 180700Z 18009KT 07/03 A3002 RMK A01 T00670031  RH  078%=      5-min Rain = 0
KRO1 180701Z 18009KT 07/03 A3002 RMK A01 T00670031  RH  078%=      5-min Rain = 0
KRO1 180702Z 18009KT 07/03 A3002 RMK A01 T00680031  RH  078%=      5-min Rain = 0
KRO1 180703Z 18009KT 07/03 A3001 RMK A01 T00680032  RH  077%=      5-min Rain = 0
KRO1 180704Z 18009KT 07/03 A3001 RMK A01 T00690032  RH  077%=      5-min Rain = 0
KRO1 180705Z 18009KT 07/03 A3001 RMK A01 T00700032  RH  077%=      5-min Rain = 0
KRO1 180706Z 18010KT 07/03 A3001 RMK A01 T00700032  RH  077%=      5-min Rain = 0
KRO1 180707Z 18010KT 07/03 A3001 RMK A01 T00710032  RH  076%=      5-min Rain = 0
KRO1 180708Z 18010KT 07/03 A3001 RMK A01 T00720032  RH  076%=      5-min Rain = 0
KRO1 180709Z 18010KT 07/03 A3001 RMK A01 T00730033  RH  076%=      5-min Rain = 0
KRO1 180710Z 18009KT 07/03 A3001 RMK A01 T00740032  RH  075%=      5-min Rain = 0
KRO1 180711Z 18009KT 07/03 A3001 RMK A01 T00740032  RH  075%=      5-min Rain = 0
KRO1 180712Z 18009KT 07/03 A3001 RMK A01 T00740032  RH  075%=      5-min Rain = 0
KRO1 180713Z 18009KT 07/03 A3001 RMK A01 T00740033  RH  075%=      5-min Rain = 0
KRO1 180714Z 18009KT 07/03 A3001 RMK A01 T00740033  RH  075%=      5-min Rain = 0
KRO1 180715Z 18008KT 08/03 A30 RMK A01 T00750033  RH  075%=      5-min Rain = 0
KRO1 180716Z 18009KT 08/03 A30 RMK A01 T00750033  RH  075%=      5-min Rain = 0
KRO1 180717Z 18009KT 08/03 A30 RMK A01 T00750032  RH  075%=      5-min Rain = 0
KRO1 180718Z 17008KT 08/03 A30 RMK A01 T00750033  RH  075%=      5-min Rain = 0
KRO1 180719Z 18009KT 07/03 A30 RMK A01 T00740032  RH  075%=      5-min Rain = 0
KRO1 180720Z 18009KT 07/03 A30 RMK A01 T00730032  RH  075%=      5-min Rain = 0
KRO1 180721Z 18009KT 07/03 A30 RMK A01 T00730032  RH  075%=      5-min Rain = 0
KRO1 180722Z 18009KT 07/03 A30 RMK A01 T00720032  RH  076%=      5-min Rain = 0
KRO1 180723Z 18009KT 07/03 A30 RMK A01 T00700032  RH  076%=      5-min Rain = 0
KRO1 180724Z 18009KT 07/03 A30 RMK A01 T00700032  RH  077%=      5-min Rain = 0
KRO1 180725Z 18009KT 07/03 A30 RMK A01 T00700032  RH  077%=      5-min Rain = 0
KRO1 180726Z 18009KT 07/03 A30 RMK A01 T00690032  RH  077%=      5-min Rain = 0
KRO1 180727Z 18009KT 07/03 A30 RMK A01 T00690032  RH  077%=      5-min Rain = 0
KRO1 180728Z 18009KT 07/03 A30 RMK A01 T00690032  RH  077%=      5-min Rain = 0
KRO1 180729Z 18008KT 07/03 A30 RMK A01 T00690032  RH  077%=      5-min Rain = 0
KRO1 180730Z 18008KT 07/03 A30 RMK A01 T00690033  RH  077%=      5-min Rain = 0
KRO1 180731Z 18008KT 07/03 A30 RMK A01 T00690032  RH  078%=      5-min Rain = 0
KRO1 180732Z 18008KT 07/03 A2999 RMK A01 T00690033  RH  078%=      5-min Rain = 0
KRO1 180733Z 18008KT 07/03 A2999 RMK A01 T00680033  RH  078%=      5-min Rain = 0
KRO1 180734Z 18008KT 07/03 A2999 RMK A01 T00680033  RH  078%=      5-min Rain = 0
KRO1 180735Z 18007KT 07/03 A2999 RMK A01 T00690033  RH  078%=      5-min Rain = 0
KRO1 180736Z 18007KT 07/03 A2999 RMK A01 T00690033  RH  078%=      5-min Rain = 0
KRO1 180737Z 18007KT 07/03 A2999 RMK A01 T00690033  RH  077%=      5-min Rain = 0
KRO1 180738Z 18006KT 07/03 A2999 RMK A01 T00700033  RH  077%=      5-min Rain = 0
KRO1 180739Z 18006KT 07/03 A2999 RMK A01 T00710033  RH  077%=      5-min Rain = 0
KRO1 180740Z 18006KT 07/03 A2999 RMK A01 T00700032  RH  077%=      5-min Rain = 0
KRO1 180741Z 18005KT 07/03 A2999 RMK A01 T00710032  RH  077%=      5-min Rain = 0
KRO1 180742Z 18005KT 07/03 A2999 RMK A01 T00710032  RH  076%=      5-min Rain = 0
KRO1 180743Z 18005KT 07/03 A2999 RMK A01 T00710032  RH  076%=      5-min Rain = 0
KRO1 180744Z 18004KT 07/03 A2999 RMK A01 T00710032  RH  076%=      5-min Rain = 0
KRO1 180745Z 18004KT 07/03 A2999 RMK A01 T00710032  RH  076%=      5-min Rain = 0
KRO1 180746Z 19003KT 07/03 A2999 RMK A01 T00710032  RH  076%=      5-min Rain = 0
KRO1 180747Z 19002KT 07/03 A2999 RMK A01 T00700032  RH  076%=      5-min Rain = 0
KRO1 180748Z 20001KT 07/03 A2999 RMK A01 T00700032  RH  077%=      5-min Rain = 0
KRO1 180749Z 20002KT 07/03 A2999 RMK A01 T00700033  RH  077%=      5-min Rain = 0
KRO1 180750Z 21002KT 07/03 A2999 RMK A01 T00700034  RH  078%=      5-min Rain = 0
KRO1 180751Z 20001KT 07/03 A2999 RMK A01 T00700033  RH  077%=      5-min Rain = 0
KRO1 180752Z 21002KT 07/03 A2999 RMK A01 T00710034  RH  077%=      5-min Rain = 0
KRO1 180753Z 20002KT 07/03 A2999 RMK A01 T00710033  RH  077%=      5-min Rain = 0
KRO1 180754Z 20002KT 07/03 A2999 RMK A01 T00720033  RH  077%=      5-min Rain = 0
KRO1 180755Z 20002KT 07/03 A2999 RMK A01 T00720033  RH  076%=      5-min Rain = 0
KRO1 180756Z 20002KT 07/03 A2999 RMK A01 T00720033  RH  076%=      5-min Rain = 0
KRO1 180757Z 21002KT 07/03 A2999 RMK A01 T00730033  RH  075%=      5-min Rain = 0
KRO1 180758Z 21002KT 07/03 A2999 RMK A01 T00730032  RH  075%=      5-min Rain = 0
KRO1 180759Z 24002KT 07/03 A2999 RMK A01 T00730033  RH  076%=      5-min Rain = 0
KRO1 180800Z 24001KT 07/03 A2999 RMK A01 T00730033  RH  075%=      5-min Rain = 0
KRO1 180801Z 23001KT 07/03 A2999 RMK A01 T00730033  RH  075%=      5-min Rain = 0
KRO1 180802Z 23001KT 07/03 A2999 RMK A01 T00730033  RH  076%=      5-min Rain = 0
KRO1 180803Z 22002KT 07/03 A2999 RMK A01 T00740033  RH  075%=      5-min Rain = 0
KRO1 180804Z 20002KT 08/03 A2999 RMK A01 T00760034  RH  075%=      5-min Rain = 0
KRO1 180805Z 20002KT 08/03 A2998 RMK A01 T00770033  RH  074%=      5-min Rain = 0
KRO1 180806Z 19002KT 08/03 A2998 RMK A01 T00780033  RH  073%=      5-min Rain = 0
KRO1 180807Z 18002KT 08/03 A2998 RMK A01 T00790033  RH  073%=      5-min Rain = 0
KRO1 180808Z 18003KT 08/03 A2998 RMK A01 T00790032  RH  072%=      5-min Rain = 0
KRO1 180809Z 18004KT 08/03 A2998 RMK A01 T00790032  RH  072%=      5-min Rain = 0
KRO1 180810Z 17003KT 08/03 A2998 RMK A01 T00800032  RH  072%=      5-min Rain = 0
KRO1 180811Z 17003KT 08/03 A2998 RMK A01 T00800032  RH  072%=      5-min Rain = 0
KRO1 180812Z 17004KT 08/03 A2998 RMK A01 T00780031  RH  072%=      5-min Rain = 0
KRO1 180813Z 17004KT 07/03 A2998 RMK A01 T00740030  RH  073%=      5-min Rain = 0
KRO1 180814Z 17004KT 07/03 A2998 RMK A01 T00710029  RH  075%=      5-min Rain = 0
KRO1 180815Z 17004KT 07/03 A2998 RMK A01 T00690029  RH  076%=      5-min Rain = 0
KRO1 180816Z 17004KT 07/03 A2998 RMK A01 T00680030  RH  077%=      5-min Rain = 0
KRO1 180817Z 17004KT 07/03 A2998 RMK A01 T00660029  RH  077%=      5-min Rain = 0
KRO1 180818Z 17005KT 07/03 A2998 RMK A01 T00660029  RH  077%=      5-min Rain = 0
KRO1 180819Z 18005KT 07/03 A2998 RMK A01 T00660029  RH  078%=      5-min Rain = 0
KRO1 180820Z 17006KT 07/03 A2998 RMK A01 T00660029  RH  078%=      5-min Rain = 0
KRO1 180821Z 18006KT 07/03 A2998 RMK A01 T00650030  RH  078%=      5-min Rain = 0
KRO1 180822Z 18006KT 07/03 A2998 RMK A01 T00660030  RH  078%=      5-min Rain = 0
KRO1 180823Z 18006KT 07/03 A2997 RMK A01 T00660030  RH  078%=      5-min Rain = 0
KRO1 180824Z 17006KT 07/03 A2997 RMK A01 T00660030  RH  078%=      5-min Rain = 0
KRO1 180825Z 17007KT 07/03 A2997 RMK A01 T00660030  RH  078%=      5-min Rain = 0
KRO1 180826Z 17007KT 07/03 A2997 RMK A01 T00650030  RH  078%=      5-min Rain = 0
KRO1 180827Z 18007KT 06/03 A2997 RMK A01 T00640029  RH  078%=      5-min Rain = 0
KRO1 180828Z 18007KT 06/03 A2997 RMK A01 T00630028  RH  078%=      5-min Rain = 0
KRO1 180829Z 18007KT 06/03 A2997 RMK A01 T00620028  RH  079%=      5-min Rain = 0
KRO1 180830Z 18007KT 06/03 A2997 RMK A01 T00610028  RH  079%=      5-min Rain = 0
KRO1 180831Z 18007KT 06/03 A2997 RMK A01 T00600028  RH  080%=      5-min Rain = 0
KRO1 180832Z 18007KT 06/03 A2997 RMK A01 T00590028  RH  080%=      5-min Rain = 0
KRO1 180833Z 18006KT 06/03 A2997 RMK A01 T00590028  RH  081%=      5-min Rain = 0
KRO1 180834Z 19006KT 06/03 A2997 RMK A01 T00590028  RH  081%=      5-min Rain = 0
KRO1 180835Z 19005KT 06/03 A2997 RMK A01 T00580028  RH  081%=      5-min Rain = 0
KRO1 180836Z 19006KT 06/03 A2998 RMK A01 T00580028  RH  081%=      5-min Rain = 0
KRO1 180837Z 20005KT 06/03 A2998 RMK A01 T00580029  RH  081%=      5-min Rain = 0
KRO1 180838Z 20006KT 06/03 A2998 RMK A01 T00590028  RH  081%=      5-min Rain = 0
KRO1 180839Z 20006KT 06/03 A2998 RMK A01 T00610029  RH  080%=      5-min Rain = 0
KRO1 180840Z 20005KT 06/03 A2997 RMK A01 T00620029  RH  079%=      5-min Rain = 0
KRO1 180841Z 20004KT 06/03 A2997 RMK A01 T00620028  RH  079%=      5-min Rain = 0
KRO1 180842Z 20005KT 06/03 A2997 RMK A01 T00620029  RH  079%=      5-min Rain = 0
KRO1 180843Z 20005KT 06/03 A2997 RMK A01 T00620029  RH  079%=      5-min Rain = 0
KRO1 180844Z 20004KT 06/03 A2997 RMK A01 T00610029  RH  080%=      5-min Rain = 0
KRO1 180845Z 21004KT 06/03 A2997 RMK A01 T00610029  RH  080%=      5-min Rain = 0
KRO1 180846Z 21004KT 06/03 A2997 RMK A01 T00600028  RH  080%=      5-min Rain = 0
KRO1 180847Z 22004KT 06/03 A2997 RMK A01 T00600029  RH  081%=      5-min Rain = 0
KRO1 180848Z 24004KT 06/03 A2997 RMK A01 T00610031  RH  081%=      5-min Rain = 0
KRO1 180849Z 25004KT 06/03 A2997 RMK A01 T00640032  RH  080%=      5-min Rain = 0
KRO1 180850Z 25004KT 07/03 A2997 RMK A01 T00670034  RH  079%=      5-min Rain = 0
KRO1 180851Z 25004KT 07/03 A2997 RMK A01 T00710034  RH  077%=      5-min Rain = 0
KRO1 180852Z 25004KT 07/03 A2997 RMK A01 T00740034  RH  076%=      5-min Rain = 0
KRO1 180853Z 25005KT 08/03 A2997 RMK A01 T00770034  RH  074%=      5-min Rain = 0
KRO1 180854Z 24004KT 08/03 A2997 RMK A01 T00790034  RH  073%=      5-min Rain = 0
KRO1 180855Z 24003KT 08/03 A2997 RMK A01 T00790033  RH  073%=      5-min Rain = 0
KRO1 180856Z 25003KT 08/03 A2997 RMK A01 T00800032  RH  072%=      5-min Rain = 0
KRO1 180857Z 24003KT 08/03 A2997 RMK A01 T00790031  RH  072%=      5-min Rain = 0
KRO1 180858Z 24004KT 08/03 A2997 RMK A01 T00770031  RH  072%=      5-min Rain = 0
KRO1 180859Z 23004KT 08/03 A2997 RMK A01 T00760030  RH  073%=      5-min Rain = 0
KRO1 180900Z 24005KT 08/03 A2997 RMK A01 T00760031  RH  073%=      5-min Rain = 0
KRO1 180901Z 23006KT 08/03 A2997 RMK A01 T00760030  RH  073%=      5-min Rain = 0
KRO1 180902Z 21006KT 08/03 A2997 RMK A01 T00760030  RH  073%=      5-min Rain = 0
KRO1 180903Z 21006KT 08/03 A2997 RMK A01 T00770031  RH  073%=      5-min Rain = 0
KRO1 180904Z 21007KT 08/03 A2997 RMK A01 T00790032  RH  072%=      5-min Rain = 0
KRO1 180905Z 21006KT 08/03 A2997 RMK A01 T00810032  RH  071%=      5-min Rain = 0
KRO1 180906Z 22006KT 08/03 A2997 RMK A01 T00810032  RH  071%=      5-min Rain = 0
KRO1 180907Z 22006KT 08/03 A2997 RMK A01 T00800030  RH  071%=      5-min Rain = 0
KRO1 180908Z 22006KT 08/03 A2997 RMK A01 T00790030  RH  071%=      5-min Rain = 0
KRO1 180909Z 22007KT 08/03 A2997 RMK A01 T00760030  RH  072%=      5-min Rain = 0
KRO1 180910Z 22007KT 08/03 A2997 RMK A01 T00760031  RH  073%=      5-min Rain = 0
KRO1 180911Z 22007KT 08/03 A2997 RMK A01 T00760031  RH  073%=      5-min Rain = 0
KRO1 180912Z 21008KT 08/03 A2997 RMK A01 T00780031  RH  072%=      5-min Rain = 0
KRO1 180913Z 22008KT 08/03 A2996 RMK A01 T00810032  RH  071%=      5-min Rain = 0
KRO1 180914Z 22007KT 08/03 A2996 RMK A01 T00820031  RH  070%=      5-min Rain = 0
KRO1 180915Z 22008KT 08/03 A2996 RMK A01 T00820031  RH  070%=      5-min Rain = 0
KRO1 180916Z 22008KT 08/03 A2996 RMK A01 T00810031  RH  071%=      5-min Rain = 0
KRO1 180917Z 22008KT 08/03 A2996 RMK A01 T00820031  RH  071%=      5-min Rain = 0
KRO1 180918Z 21008KT 08/03 A2996 RMK A01 T00820031  RH  070%=      5-min Rain = 0
KRO1 180919Z 21008KT 08/03 A2996 RMK A01 T00820032  RH  070%=      5-min Rain = 0
KRO1 180920Z 21008KT 08/03 A2996 RMK A01 T00830031  RH  070%=      5-min Rain = 0
KRO1 180921Z 21008KT 08/03 A2996 RMK A01 T00820031  RH  070%=      5-min Rain = 0
KRO1 180922Z 21008KT 08/03 A2996 RMK A01 T00820031  RH  071%=      5-min Rain = 0
KRO1 180923Z 21008KT 08/03 A2996 RMK A01 T00810032  RH  071%=      5-min Rain = 0
KRO1 180924Z 21009KT 08/03 A2996 RMK A01 T00810032  RH  071%=      5-min Rain = 0
KRO1 180925Z 21009KT 08/03 A2996 RMK A01 T00800032  RH  072%=      5-min Rain = 0
KRO1 180926Z 20010KT 08/03 A2996 RMK A01 T00800032  RH  072%=      5-min Rain = 0
KRO1 180927Z 20010KT 08/03 A2996 RMK A01 T00800032  RH  072%=      5-min Rain = 0
KRO1 180928Z 20010KT 08/03 A2995 RMK A01 T00810033  RH  072%=      5-min Rain = 0
KRO1 180929Z 20010KT 08/03 A2995 RMK A01 T00820034  RH  072%=      5-min Rain = 0
KRO1 180930Z 20010KT 08/04 A2995 RMK A01 T00840035  RH  071%=      5-min Rain = 0
KRO1 180931Z 20011KT 09/04 A2995 RMK A01 T00860036  RH  071%=      5-min Rain = 0
KRO1 180932Z 20010KT 09/04 A2995 RMK A01 T00870036  RH  070%=      5-min Rain = 0
KRO1 180933Z 20010KT 09/04 A2995 RMK A01 T00880037  RH  070%=      5-min Rain = 0
KRO1 180934Z 20011KT 09/04 A2995 RMK A01 T00890037  RH  070%=      5-min Rain = 0
KRO1 180935Z 20012KT 09/04 A2995 RMK A01 T00910038  RH  069%=      5-min Rain = 0
KRO1 180936Z 21012KT 09/04 A2995 RMK A01 T00930038  RH  068%=      5-min Rain = 0
KRO1 180937Z 21011KT 09/04 A2995 RMK A01 T00940038  RH  068%=      5-min Rain = 0
KRO1 180938Z 20012KT 10/04 A2995 RMK A01 T00950038  RH  068%=      5-min Rain = 0
KRO1 180939Z 20012KT 10/04 A2995 RMK A01 T00960038  RH  067%=      5-min Rain = 0
KRO1 180940Z 20012KT 10/04 A2995 RMK A01 T00960039  RH  067%=      5-min Rain = 0
KRO1 180941Z 20013KT 10/04 A2995 RMK A01 T00970038  RH  067%=      5-min Rain = 0
KRO1 180942Z 20013KT 10/04 A2995 RMK A01 T00980039  RH  066%=      5-min Rain = 0
KRO1 180943Z 20013KT 10/04 A2995 RMK A01 T01000039  RH  066%=      5-min Rain = 0
KRO1 180944Z 20012KT 10/04 A2995 RMK A01 T01000039  RH  066%=      5-min Rain = 0
KRO1 180945Z 20012KT 10/04 A2995 RMK A01 T01010039  RH  066%=      5-min Rain = 0
KRO1 180946Z 20012KT 10/04 A2995 RMK A01 T01000039  RH  066%=      5-min Rain = 0
KRO1 180947Z 21012KT 10/04 A2995 RMK A01 T01000039  RH  066%=      5-min Rain = 0
KRO1 180948Z 21012KT 10/04 A2995 RMK A01 T01000039  RH  066%=      5-min Rain = 0
KRO1 180949Z 21012KT 10/04 A2995 RMK A01 T01000039  RH  066%=      5-min Rain = 0
KRO1 180950Z 21012KT 10/04 A2994 RMK A01 T00990038  RH  066%=      5-min Rain = 0
KRO1 180951Z 21012KT 10/04 A2994 RMK A01 T00980039  RH  067%=      5-min Rain = 0
KRO1 180952Z 21013KT 10/04 A2994 RMK A01 T00970038  RH  067%=      5-min Rain = 0
KRO1 180953Z 21013KT 10/04 A2994 RMK A01 T00970038  RH  067%=      5-min Rain = 0
KRO1 180954Z 21013KT 10/04 A2994 RMK A01 T00970038  RH  067%=      5-min Rain = 0
KRO1 180955Z 21013KT 10/04 A2994 RMK A01 T00980038  RH  066%=      5-min Rain = 0
KRO1 180956Z 21014KT 10/04 A2994 RMK A01 T00990039  RH  066%=      5-min Rain = 0
KRO1 180957Z 21014KT 10/04 A2994 RMK A01 T00990039  RH  066%=      5-min Rain = 0
KRO1 180958Z 21013KT 10/04 A2994 RMK A01 T01000039  RH  066%=      5-min Rain = 0
KRO1 180959Z 21013KT 10/04 A2994 RMK A01 T01000038  RH  066%=      5-min Rain = 0
KRO1 181000Z 21013KT 10/04 A2994 RMK A01 T01000039  RH  066%=      5-min Rain = 0
KRO1 181001Z 21014KT 10/04 A2994 RMK A01 T01010039  RH  065%=      5-min Rain = 0
KRO1 181002Z 21013KT 10/04 A2994 RMK A01 T01020039  RH  065%=      5-min Rain = 0
KRO1 181003Z 21014KT 10/04 A2994 RMK A01 T01020039  RH  065%=      5-min Rain = 0
KRO1 181004Z 21014KT 10/04 A2994 RMK A01 T01030039  RH  065%=      5-min Rain = 0
KRO1 181005Z 21014KT 10/04 A2994 RMK A01 T01040039  RH  064%=      5-min Rain = 0
KRO1 181006Z 21014KT 10/04 A2994 RMK A01 T01030039  RH  064%=      5-min Rain = 0
KRO1 181007Z 21014KT 10/04 A2994 RMK A01 T01040040  RH  064%=      5-min Rain = 0
KRO1 181008Z 21015KT 10/04 A2994 RMK A01 T01040039  RH  064%=      5-min Rain = 0
KRO1 181009Z 21014KT 10/04 A2994 RMK A01 T01040039  RH  064%=      5-min Rain = 0
KRO1 181010Z 21015KT 10/04 A2993 RMK A01 T01030039  RH  064%=      5-min Rain = 0
KRO1 181011Z 21015KT 10/04 A2993 RMK A01 T01040039  RH  064%=      5-min Rain = 0
KRO1 181012Z 21015KT 10/04 A2993 RMK A01 T01040040  RH  064%=      5-min Rain = 0
KRO1 181013Z 20016KT 11/04 A2993 RMK A01 T01050040  RH  064%=      5-min Rain = 0
KRO1 181014Z 21016KT 11/04 A2993 RMK A01 T01050040  RH  064%=      5-min Rain = 0
KRO1 181015Z 21016KT 11/04 A2993 RMK A01 T01060041  RH  064%=      5-min Rain = 0
KRO1 181016Z 20017KT 11/04 A2993 RMK A01 T01060041  RH  064%=      5-min Rain = 0
KRO1 181017Z 21017KT 11/04 A2993 RMK A01 T01070041  RH  064%=      5-min Rain = 0
KRO1 181018Z 21016KT 11/04 A2993 RMK A01 T01070041  RH  064%=      5-min Rain = 0
KRO1 181019Z 21016KT 11/04 A2993 RMK A01 T01070041  RH  064%=      5-min Rain = 0
KRO1 181020Z 20016KT 11/04 A2993 RMK A01 T01070041  RH  064%=      5-min Rain = 0
KRO1 181021Z 21016KT 11/04 A2993 RMK A01 T01070041  RH  064%=      5-min Rain = 0
KRO1 181022Z 21017KT 11/04 A2993 RMK A01 T01070041  RH  064%=      5-min Rain = 0
KRO1 181023Z 21017KT 11/04 A2993 RMK A01 T01080041  RH  063%=      5-min Rain = 0
KRO1 181024Z 21017KT 11/04 A2993 RMK A01 T01080041  RH  063%=      5-min Rain = 0
KRO1 181025Z 20017KT 11/04 A2993 RMK A01 T01070041  RH  064%=      5-min Rain = 0
KRO1 181026Z 20017KT 11/04 A2992 RMK A01 T01070041  RH  064%=      5-min Rain = 0
KRO1 181027Z 20016KT 11/04 A2992 RMK A01 T01070041  RH  064%=      5-min Rain = 0
KRO1 181028Z 20017KT 11/04 A2992 RMK A01 T01060041  RH  064%=      5-min Rain = 0
KRO1 181029Z 20017KT 11/04 A2992 RMK A01 T01060041  RH  064%=      5-min Rain = 0
KRO1 181030Z 20016KT 11/04 A2992 RMK A01 T01060041  RH  064%=      5-min Rain = 0
KRO1 181031Z 20017KT 11/04 A2992 RMK A01 T01060041  RH  064%=      5-min Rain = 0
KRO1 181032Z 20017KT 11/04 A2992 RMK A01 T01070041  RH  064%=      5-min Rain = 0
KRO1 181033Z 20017KT 11/04 A2992 RMK A01 T01070041  RH  064%=      5-min Rain = 0
KRO1 181034Z 20018KT 11/04 A2992 RMK A01 T01070041  RH  064%=      5-min Rain = 0
KRO1 181035Z 20017KT 11/04 A2992 RMK A01 T01070041  RH  064%=      5-min Rain = 0
KRO1 181036Z 20017KT 11/04 A2992 RMK A01 T01080041  RH  063%=      5-min Rain = 0
KRO1 181037Z 20018KT 11/04 A2992 RMK A01 T01080041  RH  063%=      5-min Rain = 0
KRO1 181038Z 20017KT 11/04 A2992 RMK A01 T01090041  RH  063%=      5-min Rain = 0
KRO1 181039Z 20018KT 11/04 A2992 RMK A01 T01090041  RH  063%=      5-min Rain = 0
KRO1 181040Z 20017KT 11/04 A2992 RMK A01 T01100041  RH  062%=      5-min Rain = 0
KRO1 181041Z 20017KT 11/04 A2992 RMK A01 T01100041  RH  062%=      5-min Rain = 0
KRO1 181042Z 21018KT 11/04 A2992 RMK A01 T01080041  RH  063%=      5-min Rain = 0
KRO1 181043Z 21017KT 11/04 A2992 RMK A01 T01080041  RH  063%=      5-min Rain = 0
KRO1 181044Z 21017KT 11/04 A2992 RMK A01 T01080041  RH  063%=      5-min Rain = 0
KRO1 181045Z 21017KT 11/04 A2992 RMK A01 T01070041  RH  064%=      5-min Rain = 0
KRO1 181046Z 21017KT 11/04 A2992 RMK A01 T01070041  RH  064%=      5-min Rain = 0
KRO1 181047Z 21017KT 11/04 A2992 RMK A01 T01060041  RH  064%=      5-min Rain = 0
KRO1 181048Z 20016KT 11/04 A2991 RMK A01 T01060040  RH  064%=      5-min Rain = 0
KRO1 181049Z 20017KT 11/04 A2991 RMK A01 T01060040  RH  064%=      5-min Rain = 0
KRO1 181050Z 20016KT 11/04 A2991 RMK A01 T01060040  RH  064%=      5-min Rain = 0
KRO1 181051Z 20017KT 11/04 A2991 RMK A01 T01060040  RH  064%=      5-min Rain = 0
KRO1 181052Z 20017KT 11/04 A2991 RMK A01 T01060040  RH  064%=      5-min Rain = 0
KRO1 181053Z 20017KT 11/04 A2991 RMK A01 T01060040  RH  064%=      5-min Rain = 0
KRO1 181054Z 20016KT 11/04 A2991 RMK A01 T01060040  RH  064%=      5-min Rain = 0
KRO1 181055Z 20017KT 11/04 A2991 RMK A01 T01060040  RH  064%=      5-min Rain = 0
KRO1 181056Z 20017KT 11/04 A2991 RMK A01 T01070040  RH  063%=      5-min Rain = 0
KRO1 181057Z 20016KT 11/04 A299 RMK A01 T01070040  RH  063%=      5-min Rain = 0
KRO1 181058Z 20016KT 11/04 A299 RMK A01 T01080040  RH  063%=      5-min Rain = 0
KRO1 181059Z 20016KT 11/04 A299 RMK A01 T01070039  RH  063%=      5-min Rain = 0
KRO1 181100Z 20016KT 11/04 A299 RMK A01 T01080039  RH  063%=      5-min Rain = 0
KRO1 181101Z 20016KT 11/04 A299 RMK A01 T01080039  RH  063%=      5-min Rain = 0
KRO1 181102Z 20016KT 11/04 A299 RMK A01 T01080039  RH  063%=      5-min Rain = 0
KRO1 181103Z 20016KT 11/04 A299 RMK A01 T01080039  RH  063%=      5-min Rain = 0
KRO1 181104Z 20016KT 11/04 A299 RMK A01 T01070039  RH  063%=      5-min Rain = 0
KRO1 181105Z 20015KT 11/04 A299 RMK A01 T01070039  RH  063%=      5-min Rain = 0
KRO1 181106Z 20015KT 11/04 A299 RMK A01 T01060039  RH  063%=      5-min Rain = 0
KRO1 181107Z 20015KT 11/04 A299 RMK A01 T01060039  RH  063%=      5-min Rain = 0
KRO1 181108Z 20015KT 11/04 A299 RMK A01 T01050039  RH  063%=      5-min Rain = 0
KRO1 181109Z 20015KT 11/04 A299 RMK A01 T01050039  RH  064%=      5-min Rain = 0
KRO1 181110Z 20015KT 10/04 A299 RMK A01 T01040039  RH  064%=      5-min Rain = 0
KRO1 181111Z 20015KT 10/04 A299 RMK A01 T01040039  RH  064%=      5-min Rain = 0
KRO1 181112Z 20015KT 10/04 A299 RMK A01 T01040039  RH  064%=      5-min Rain = 0
KRO1 181113Z 20015KT 10/04 A299 RMK A01 T01030039  RH  064%=      5-min Rain = 0
KRO1 181114Z 20015KT 10/04 A299 RMK A01 T01030039  RH  064%=      5-min Rain = 0
KRO1 181115Z 20016KT 10/04 A299 RMK A01 T01030039  RH  064%=      5-min Rain = 0
KRO1 181116Z 20015KT 10/04 A2989 RMK A01 T01030038  RH  064%=      5-min Rain = 0
KRO1 181117Z 20016KT 10/04 A2989 RMK A01 T01030038  RH  064%=      5-min Rain = 0
KRO1 181118Z 19015KT 10/04 A2989 RMK A01 T01030039  RH  064%=      5-min Rain = 0
KRO1 181119Z 20016KT 10/04 A2989 RMK A01 T01020038  RH  064%=      5-min Rain = 0
KRO1 181120Z 20015KT 10/04 A2989 RMK A01 T01020038  RH  065%=      5-min Rain = 0
KRO1 181121Z 20016KT 10/04 A2989 RMK A01 T01020038  RH  064%=      5-min Rain = 0
KRO1 181122Z 20016KT 10/04 A2989 RMK A01 T01030038  RH  064%=      5-min Rain = 0
KRO1 181123Z 20016KT 10/04 A2989 RMK A01 T01030038  RH  064%=      5-min Rain = 0
KRO1 181124Z 20015KT 10/04 A2989 RMK A01 T01030038  RH  064%=      5-min Rain = 0
KRO1 181125Z 20016KT 10/04 A2989 RMK A01 T01030038  RH  064%=      5-min Rain = 0
KRO1 181126Z 20016KT 10/04 A2989 RMK A01 T01030038  RH  064%=      5-min Rain = 0
KRO1 181127Z 20016KT 10/04 A2989 RMK A01 T01030037  RH  064%=      5-min Rain = 0
KRO1 181128Z 20016KT 10/04 A2989 RMK A01 T01030037  RH  064%=      5-min Rain = 0
KRO1 181129Z 20016KT 10/04 A2989 RMK A01 T01030037  RH  064%=      5-min Rain = 0
KRO1 181130Z 20016KT 10/04 A2989 RMK A01 T01030038  RH  064%=      5-min Rain = 0
KRO1 181131Z 20016KT 10/04 A2989 RMK A01 T01020037  RH  064%=      5-min Rain = 0
KRO1 181132Z 20016KT 10/04 A2989 RMK A01 T01020037  RH  064%=      5-min Rain = 0
KRO1 181133Z 19016KT 10/04 A2989 RMK A01 T01030037  RH  064%=      5-min Rain = 0
KRO1 181134Z 20017KT 10/04 A2989 RMK A01 T01030037  RH  064%=      5-min Rain = 0
KRO1 181135Z 20016KT 10/04 A2989 RMK A01 T01030037  RH  064%=      5-min Rain = 0
KRO1 181136Z 20016KT 10/04 A2989 RMK A01 T01030037  RH  063%=      5-min Rain = 0
KRO1 181137Z 20017KT 10/04 A2989 RMK A01 T01030037  RH  063%=      5-min Rain = 0
KRO1 181138Z 20017KT 10/04 A2989 RMK A01 T01030036  RH  063%=      5-min Rain = 0
KRO1 181139Z 20016KT 10/04 A2989 RMK A01 T01030036  RH  063%=      5-min Rain = 0
KRO1 181140Z 20016KT 10/04 A2988 RMK A01 T01040037  RH  063%=      5-min Rain = 0
KRO1 181141Z 20017KT 10/04 A2988 RMK A01 T01040037  RH  063%=      5-min Rain = 0
KRO1 181142Z 20016KT 11/04 A2988 RMK A01 T01050037  RH  063%=      5-min Rain = 0
KRO1 181143Z 20016KT 10/04 A2988 RMK A01 T01040037  RH  063%=      5-min Rain = 0
KRO1 181144Z 20017KT 10/04 A2988 RMK A01 T01030037  RH  063%=      5-min Rain = 0
KRO1 181145Z 20016KT 10/04 A2988 RMK A01 T01040037  RH  063%=      5-min Rain = 0
KRO1 181146Z 20017KT 10/04 A2988 RMK A01 T01040036  RH  063%=      5-min Rain = 0
KRO1 181147Z 20016KT 11/04 A2988 RMK A01 T01050037  RH  062%=      5-min Rain = 0
KRO1 181148Z 20017KT 11/04 A2988 RMK A01 T01050037  RH  063%=      5-min Rain = 0
KRO1 181149Z 20016KT 10/04 A2988 RMK A01 T01040037  RH  063%=      5-min Rain = 0
KRO1 181150Z 20016KT 10/04 A2988 RMK A01 T01040037  RH  063%=      5-min Rain = 0
KRO1 181151Z 20016KT 10/04 A2988 RMK A01 T01040036  RH  063%=      5-min Rain = 0
KRO1 181152Z 20016KT 10/04 A2988 RMK A01 T01030037  RH  063%=      5-min Rain = 0
KRO1 181153Z 20016KT 10/04 A2988 RMK A01 T01040036  RH  063%=      5-min Rain = 0
KRO1 181154Z 20016KT 10/04 A2988 RMK A01 T01040036  RH  063%=      5-min Rain = 0
KRO1 181155Z 20016KT 10/04 A2988 RMK A01 T01040036  RH  063%=      5-min Rain = 0
KRO1 181156Z 20015KT 10/04 A2988 RMK A01 T01030036  RH  063%=      5-min Rain = 0
KRO1 181157Z 20016KT 10/04 A2988 RMK A01 T01030037  RH  063%=      5-min Rain = 0
KRO1 181158Z 20016KT 10/04 A2988 RMK A01 T01030037  RH  064%=      5-min Rain = 0
KRO1 181159Z 20016KT 10/04 A2987 RMK A01 T01030036  RH  063%=      5-min Rain = 0
KRO1 181200Z 20016KT 10/04 A2987 RMK A01 T01030036  RH  063%=      5-min Rain = 0
KRO1 181201Z 20016KT 10/04 A2987 RMK A01 T01030036  RH  063%=      5-min Rain = 0
KRO1 181202Z 20016KT 10/04 A2987 RMK A01 T01020037  RH  064%=      5-min Rain = 0
KRO1 181203Z 20016KT 10/04 A2987 RMK A01 T01020037  RH  064%=      5-min Rain = 0
KRO1 181204Z 20016KT 10/04 A2987 RMK A01 T01020036  RH  064%=      5-min Rain = 0
KRO1 181205Z 20015KT 10/04 A2987 RMK A01 T01020037  RH  064%=      5-min Rain = 0
KRO1 181206Z 20016KT 10/04 A2987 RMK A01 T01010036  RH  064%=      5-min Rain = 0
KRO1 181207Z 20016KT 10/04 A2987 RMK A01 T01010036  RH  064%=      5-min Rain = 0
KRO1 181208Z 20016KT 10/04 A2988 RMK A01 T01020036  RH  064%=      5-min Rain = 0
KRO1 181209Z 20016KT 10/04 A2987 RMK A01 T01020036  RH  064%=      5-min Rain = 0
KRO1 181210Z 20016KT 10/04 A2987 RMK A01 T01020036  RH  064%=      5-min Rain = 0
KRO1 181211Z 20016KT 10/04 A2987 RMK A01 T01020036  RH  064%=      5-min Rain = 0
KRO1 181212Z 20015KT 10/04 A2987 RMK A01 T01020036  RH  064%=      5-min Rain = 0
KRO1 181213Z 20016KT 10/04 A2987 RMK A01 T01020036  RH  064%=      5-min Rain = 0
KRO1 181214Z 20016KT 10/04 A2987 RMK A01 T01010036  RH  064%=      5-min Rain = 0
KRO1 181215Z 20015KT 10/04 A2987 RMK A01 T01010036  RH  064%=      5-min Rain = 0
KRO1 181216Z 20015KT 10/04 A2987 RMK A01 T01000036  RH  065%=      5-min Rain = 0
KRO1 181217Z 20015KT 10/04 A2987 RMK A01 T00990036  RH  065%=      5-min Rain = 0
KRO1 181218Z 20016KT 10/04 A2987 RMK A01 T00990036  RH  065%=      5-min Rain = 0
KRO1 181219Z 20016KT 10/04 A2987 RMK A01 T00990037  RH  065%=      5-min Rain = 0
KRO1 181220Z 20017KT 10/04 A2987 RMK A01 T01000037  RH  065%=      5-min Rain = 0
KRO1 181221Z 20016KT 10/04 A2987 RMK A01 T01000037  RH  065%=      5-min Rain = 0
KRO1 181222Z 20015KT 10/04 A2987 RMK A01 T01000036  RH  065%=      5-min Rain = 0
KRO1 181223Z 20016KT 10/04 A2986 RMK A01 T01000037  RH  065%=      5-min Rain = 0
KRO1 181224Z 20016KT 10/04 A2986 RMK A01 T01000037  RH  065%=      5-min Rain = 0
KRO1 181225Z 20016KT 10/04 A2986 RMK A01 T01010037  RH  064%=      5-min Rain = 0
KRO1 181226Z 20016KT 10/04 A2986 RMK A01 T01010037  RH  064%=      5-min Rain = 0
KRO1 181227Z 20016KT 10/04 A2986 RMK A01 T01010037  RH  064%=      5-min Rain = 0
KRO1 181228Z 20017KT 10/04 A2986 RMK A01 T01020037  RH  064%=      5-min Rain = 0
KRO1 181229Z 20016KT 10/04 A2986 RMK A01 T01020037  RH  064%=      5-min Rain = 0
KRO1 181230Z 20016KT 10/04 A2986 RMK A01 T01020037  RH  064%=      5-min Rain = 0
KRO1 181231Z 20016KT 10/04 A2986 RMK A01 T01020037  RH  064%=      5-min Rain = 0
KRO1 181232Z 20017KT 10/04 A2986 RMK A01 T01020037  RH  064%=      5-min Rain = 0
KRO1 181233Z 20017KT 10/04 A2986 RMK A01 T01030037  RH  063%=      5-min Rain = 0
KRO1 181234Z 20016KT 10/04 A2986 RMK A01 T01030037  RH  063%=      5-min Rain = 0
KRO1 181235Z 20016KT 10/04 A2986 RMK A01 T01030037  RH  064%=      5-min Rain = 0
KRO1 181236Z 20016KT 10/04 A2986 RMK A01 T01030037  RH  064%=      5-min Rain = 0
KRO1 181237Z 20016KT 10/04 A2986 RMK A01 T01020038  RH  064%=      5-min Rain = 0
KRO1 181238Z 20016KT 10/04 A2986 RMK A01 T01020037  RH  064%=      5-min Rain = 0
KRO1 181239Z 20016KT 10/04 A2986 RMK A01 T01020037  RH  064%=      5-min Rain = 0
KRO1 181240Z 20017KT 10/04 A2986 RMK A01 T01020038  RH  064%=      5-min Rain = 0
KRO1 181241Z 20017KT 10/04 A2986 RMK A01 T01020037  RH  064%=      5-min Rain = 0
KRO1 181242Z 20017KT 10/04 A2986 RMK A01 T01020037  RH  064%=      5-min Rain = 0
KRO1 181243Z 20018KT 10/04 A2985 RMK A01 T01020037  RH  064%=      5-min Rain = 0
KRO1 181244Z 20016KT 10/04 A2986 RMK A01 T01020038  RH  064%=      5-min Rain = 0
KRO1 181245Z 20017KT 10/04 A2986 RMK A01 T01010038  RH  065%=      5-min Rain = 0
KRO1 181246Z 20017KT 10/04 A2986 RMK A01 T01010038  RH  065%=      5-min Rain = 0
KRO1 181247Z 20017KT 10/04 A2986 RMK A01 T01010038  RH  065%=      5-min Rain = 0
KRO1 181248Z 20017KT 10/04 A2985 RMK A01 T01010038  RH  065%=      5-min Rain = 0
KRO1 181249Z 20017KT 10/04 A2985 RMK A01 T01010038  RH  065%=      5-min Rain = 0
KRO1 181250Z 20017KT 10/04 A2985 RMK A01 T01010038  RH  065%=      5-min Rain = 0
KRO1 181251Z 20017KT 10/04 A2985 RMK A01 T01010038  RH  065%=      5-min Rain = 0
KRO1 181252Z 20017KT 10/04 A2985 RMK A01 T01010038  RH  065%=      5-min Rain = 0
KRO1 181253Z 20017KT 10/04 A2985 RMK A01 T01010038  RH  065%=      5-min Rain = 0
KRO1 181254Z 20017KT 10/04 A2985 RMK A01 T01010038  RH  065%=      5-min Rain = 0
KRO1 181255Z 20017KT 10/04 A2985 RMK A01 T01020038  RH  065%=      5-min Rain = 0
KRO1 181256Z 20016KT 10/04 A2985 RMK A01 T01020038  RH  065%=      5-min Rain = 0
KRO1 181257Z 20017KT 10/04 A2985 RMK A01 T01010038  RH  065%=      5-min Rain = 0
KRO1 181258Z 20017KT 10/04 A2985 RMK A01 T01010038  RH  065%=      5-min Rain = 0
KRO1 181259Z 20017KT 10/04 A2985 RMK A01 T01010038  RH  065%=      5-min Rain = 0
KRO1 181300Z 20017KT 10/04 A2985 RMK A01 T01010038  RH  065%=      5-min Rain = 0
KRO1 181301Z 20017KT 10/04 A2985 RMK A01 T01010038  RH  065%=      5-min Rain = 0
KRO1 181302Z 20017KT 10/04 A2985 RMK A01 T01010038  RH  065%=      5-min Rain = 0
KRO1 181303Z 20017KT 10/04 A2985 RMK A01 T01020038  RH  065%=      5-min Rain = 0
KRO1 181304Z 20018KT 10/04 A2985 RMK A01 T01030038  RH  064%=      5-min Rain = 0
KRO1 181305Z 20017KT 10/04 A2985 RMK A01 T01030039  RH  064%=      5-min Rain = 0
KRO1 181306Z 20018KT 10/04 A2985 RMK A01 T01030039  RH  064%=      5-min Rain = 0
KRO1 181307Z 20018KT 10/04 A2985 RMK A01 T01030038  RH  064%=      5-min Rain = 0
KRO1 181308Z 20018KT 10/04 A2985 RMK A01 T01030039  RH  064%=      5-min Rain = 0
KRO1 181309Z 20017KT 10/04 A2985 RMK A01 T01030039  RH  064%=      5-min Rain = 0
KRO1 181310Z 20018KT 10/04 A2985 RMK A01 T01040039  RH  064%=      5-min Rain = 0
KRO1 181311Z 20017KT 10/04 A2985 RMK A01 T01030039  RH  064%=      5-min Rain = 0
KRO1 181312Z 20017KT 10/04 A2985 RMK A01 T01040039  RH  064%=      5-min Rain = 0
KRO1 181313Z 20018KT 10/04 A2985 RMK A01 T01040039  RH  064%=      5-min Rain = 0
KRO1 181314Z 20017KT 10/04 A2985 RMK A01 T01040039  RH  064%=      5-min Rain = 0
KRO1 181315Z 20016KT 10/04 A2985 RMK A01 T01040039  RH  064%=      5-min Rain = 0
KRO1 181316Z 20017KT 10/04 A2985 RMK A01 T01030039  RH  064%=      5-min Rain = 0
KRO1 181317Z 20016KT 10/04 A2984 RMK A01 T01030039  RH  064%=      5-min Rain = 0
KRO1 181318Z 20017KT 10/04 A2984 RMK A01 T01030039  RH  064%=      5-min Rain = 0
KRO1 181319Z 20017KT 10/04 A2984 RMK A01 T01040039  RH  064%=      5-min Rain = 0
KRO1 181320Z 20017KT 10/04 A2984 RMK A01 T01040040  RH  065%=      5-min Rain = 0
KRO1 181321Z 20016KT 10/04 A2984 RMK A01 T01030040  RH  065%=      5-min Rain = 0
KRO1 181322Z 20016KT 10/04 A2984 RMK A01 T01030040  RH  065%=      5-min Rain = 0
KRO1 181323Z 20016KT 10/04 A2984 RMK A01 T01030040  RH  065%=      5-min Rain = 0
KRO1 181324Z 20016KT 10/04 A2984 RMK A01 T01030039  RH  065%=      5-min Rain = 0
KRO1 181325Z 20016KT 10/04 A2984 RMK A01 T01030040  RH  065%=      5-min Rain = 0
KRO1 181326Z 20016KT 10/04 A2984 RMK A01 T01020040  RH  065%=      5-min Rain = 0
KRO1 181327Z 20015KT 10/04 A2984 RMK A01 T01020040  RH  065%=      5-min Rain = 0
KRO1 181328Z 20015KT 10/04 A2984 RMK A01 T01020040  RH  065%=      5-min Rain = 0
KRO1 181329Z 20015KT 10/04 A2984 RMK A01 T01010040  RH  065%=      5-min Rain = 0
KRO1 181330Z 20015KT 10/04 A2984 RMK A01 T01010040  RH  066%=      5-min Rain = 0
KRO1 181331Z 20015KT 10/04 A2984 RMK A01 T01000039  RH  066%=      5-min Rain = 0
KRO1 181332Z 20014KT 10/04 A2985 RMK A01 T01000040  RH  066%=      5-min Rain = 0
KRO1 181333Z 20014KT 10/04 A2985 RMK A01 T00990039  RH  066%=      5-min Rain = 0
KRO1 181334Z 20015KT 10/04 A2985 RMK A01 T00990039  RH  066%=      5-min Rain = 0
KRO1 181335Z 20014KT 10/04 A2985 RMK A01 T00980039  RH  067%=      5-min Rain = 0
KRO1 181336Z 20014KT 10/04 A2985 RMK A01 T00980039  RH  067%=      5-min Rain = 0
KRO1 181337Z 21014KT 10/04 A2985 RMK A01 T00980039  RH  067%=      5-min Rain = 0
KRO1 181338Z 21013KT 10/04 A2985 RMK A01 T00980039  RH  067%=      5-min Rain = 0
KRO1 181339Z 21013KT 10/04 A2985 RMK A01 T00980039  RH  067%=      5-min Rain = 0
KRO1 181340Z 21013KT 10/04 A2985 RMK A01 T00970039  RH  067%=      5-min Rain = 0
KRO1 181341Z 21013KT 10/04 A2985 RMK A01 T00960039  RH  067%=      5-min Rain = 0
KRO1 181342Z 21013KT 10/04 A2985 RMK A01 T00960039  RH  068%=      5-min Rain = 0
KRO1 181343Z 21014KT 10/04 A2985 RMK A01 T00950039  RH  068%=      5-min Rain = 0
KRO1 181344Z 21014KT 09/04 A2985 RMK A01 T00940039  RH  068%=      5-min Rain = 0
KRO1 181345Z 21014KT 09/04 A2985 RMK A01 T00940039  RH  068%=      5-min Rain = 0
KRO1 181346Z 21014KT 09/04 A2985 RMK A01 T00940039  RH  068%=      5-min Rain = 0
KRO1 181347Z 21013KT 09/04 A2985 RMK A01 T00940039  RH  068%=      5-min Rain = 0
KRO1 181348Z 21013KT 09/04 A2985 RMK A01 T00940039  RH  068%=      5-min Rain = 0
KRO1 181349Z 21014KT 09/04 A2985 RMK A01 T00940039  RH  069%=      5-min Rain = 0
KRO1 181350Z 21014KT 09/04 A2985 RMK A01 T00940039  RH  068%=      5-min Rain = 0
KRO1 181351Z 21014KT 10/04 A2985 RMK A01 T00950039  RH  068%=      5-min Rain = 0
KRO1 181352Z 21014KT 10/04 A2985 RMK A01 T00950040  RH  068%=      5-min Rain = 0
KRO1 181353Z 21014KT 10/04 A2985 RMK A01 T00950039  RH  068%=      5-min Rain = 0
KRO1 181354Z 21013KT 09/04 A2985 RMK A01 T00940039  RH  069%=      5-min Rain = 0
KRO1 181355Z 21013KT 09/04 A2985 RMK A01 T00940040  RH  069%=      5-min Rain = 0
KRO1 181356Z 21014KT 09/04 A2985 RMK A01 T00940039  RH  069%=      5-min Rain = 0
KRO1 181357Z 21014KT 09/04 A2985 RMK A01 T00940040  RH  069%=      5-min Rain = 0
KRO1 181358Z 21014KT 09/04 A2985 RMK A01 T00940040  RH  069%=      5-min Rain = 0
KRO1 181359Z 20014KT 09/04 A2985 RMK A01 T00940040  RH  069%=      5-min Rain = 0
KRO1 181400Z 20014KT 09/04 A2984 RMK A01 T00940040  RH  069%=      5-min Rain = 0
KRO1 181401Z 20015KT 10/04 A2984 RMK A01 T00950040  RH  069%=      5-min Rain = 0
KRO1 181402Z 20015KT 10/04 A2984 RMK A01 T00960040  RH  068%=      5-min Rain = 0
KRO1 181403Z 20014KT 10/04 A2984 RMK A01 T00970040  RH  068%=      5-min Rain = 0
KRO1 181404Z 20014KT 10/04 A2984 RMK A01 T00980040  RH  067%=      5-min Rain = 0
KRO1 181405Z 20014KT 10/04 A2984 RMK A01 T00990041  RH  067%=      5-min Rain = 0
KRO1 181406Z 20014KT 10/04 A2984 RMK A01 T01000041  RH  066%=      5-min Rain = 0
KRO1 181407Z 20014KT 10/04 A2984 RMK A01 T01010041  RH  066%=      5-min Rain = 0
KRO1 181408Z 20013KT 10/04 A2984 RMK A01 T01000041  RH  067%=      5-min Rain = 0
KRO1 181409Z 20014KT 10/04 A2984 RMK A01 T01000041  RH  067%=      5-min Rain = 0
KRO1 181410Z 20013KT 10/04 A2984 RMK A01 T01000041  RH  067%=      5-min Rain = 0
KRO1 181411Z 21014KT 10/04 A2984 RMK A01 T01000041  RH  067%=      5-min Rain = 0
KRO1 181412Z 21014KT 10/04 A2984 RMK A01 T01010041  RH  066%=      5-min Rain = 0
KRO1 181413Z 21013KT 10/04 A2985 RMK A01 T01010042  RH  066%=      5-min Rain = 0
KRO1 181414Z 21012KT 10/04 A2985 RMK A01 T01020042  RH  066%=      5-min Rain = 0
KRO1 181415Z 21012KT 10/04 A2985 RMK A01 T01020042  RH  066%=      5-min Rain = 0
KRO1 181416Z 21012KT 10/04 A2985 RMK A01 T01020042  RH  066%=      5-min Rain = 0
KRO1 181417Z 22012KT 10/04 A2985 RMK A01 T01020042  RH  066%=      5-min Rain = 0
KRO1 181418Z 22012KT 10/04 A2985 RMK A01 T01030042  RH  066%=      5-min Rain = 0
KRO1 181419Z 22012KT 10/04 A2985 RMK A01 T01030043  RH  066%=      5-min Rain = 0
KRO1 181420Z 21012KT 10/04 A2985 RMK A01 T01030042  RH  066%=      5-min Rain = 0
KRO1 181421Z 22013KT 10/04 A2985 RMK A01 T01030043  RH  066%=      5-min Rain = 0
KRO1 181422Z 21013KT 10/04 A2985 RMK A01 T01040043  RH  066%=      5-min Rain = 0
KRO1 181423Z 21013KT 10/04 A2985 RMK A01 T01040043  RH  066%=      5-min Rain = 0
KRO1 181424Z 22013KT 11/04 A2985 RMK A01 T01050043  RH  066%=      5-min Rain = 0
KRO1 181425Z 22012KT 11/04 A2985 RMK A01 T01060044  RH  065%=      5-min Rain = 0
KRO1 181426Z 22013KT 11/04 A2985 RMK A01 T01060044  RH  065%=      5-min Rain = 0
KRO1 181427Z 22013KT 11/04 A2985 RMK A01 T01070044  RH  065%=      5-min Rain = 0
KRO1 181428Z 22013KT 11/04 A2985 RMK A01 T01080044  RH  065%=      5-min Rain = 0
KRO1 181429Z 22013KT 11/04 A2985 RMK A01 T01090044  RH  064%=      5-min Rain = 0
KRO1 181430Z 22012KT 11/05 A2985 RMK A01 T01090045  RH  064%=      5-min Rain = 0
KRO1 181431Z 22013KT 11/05 A2985 RMK A01 T01090045  RH  064%=      5-min Rain = 0
KRO1 181432Z 22013KT 11/05 A2985 RMK A01 T01100045  RH  064%=      5-min Rain = 0
KRO1 181433Z 22014KT 11/05 A2985 RMK A01 T01110045  RH  064%=      5-min Rain = 0
KRO1 181434Z 22013KT 11/05 A2985 RMK A01 T01110045  RH  064%=      5-min Rain = 0
KRO1 181435Z 22013KT 11/05 A2985 RMK A01 T01120046  RH  064%=      5-min Rain = 0
KRO1 181436Z 22013KT 11/05 A2985 RMK A01 T01120046  RH  064%=      5-min Rain = 0
KRO1 181437Z 21014KT 11/05 A2985 RMK A01 T01120046  RH  064%=      5-min Rain = 0
KRO1 181438Z 21013KT 11/05 A2984 RMK A01 T01130046  RH  064%=      5-min Rain = 0
KRO1 181439Z 21013KT 11/05 A2984 RMK A01 T01140047  RH  063%=      5-min Rain = 0
KRO1 181440Z 21014KT 11/05 A2984 RMK A01 T01140048  RH  063%=      5-min Rain = 0
KRO1 181441Z 22014KT 12/05 A2984 RMK A01 T01150048  RH  063%=      5-min Rain = 0
KRO1 181442Z 22014KT 12/05 A2984 RMK A01 T01150047  RH  063%=      5-min Rain = 0
KRO1 181443Z 22013KT 12/05 A2984 RMK A01 T01160047  RH  063%=      5-min Rain = 0
KRO1 181444Z 22013KT 12/05 A2984 RMK A01 T01170048  RH  063%=      5-min Rain = 0
KRO1 181445Z 22012KT 12/05 A2984 RMK A01 T01170048  RH  063%=      5-min Rain = 0
KRO1 181446Z 22013KT 12/05 A2984 RMK A01 T01180048  RH  062%=      5-min Rain = 0
KRO1 181447Z 22013KT 12/05 A2984 RMK A01 T01180048  RH  062%=      5-min Rain = 0
KRO1 181448Z 22013KT 12/05 A2984 RMK A01 T01190049  RH  062%=      5-min Rain = 0
KRO1 181449Z 22014KT 12/05 A2984 RMK A01 T01190049  RH  062%=      5-min Rain = 0
KRO1 181450Z 22013KT 12/05 A2984 RMK A01 T01200050  RH  062%=      5-min Rain = 0
KRO1 181451Z 22014KT 12/05 A2984 RMK A01 T01210050  RH  062%=      5-min Rain = 0
KRO1 181452Z 21015KT 12/05 A2984 RMK A01 T01210050  RH  062%=      5-min Rain = 0
KRO1 181453Z 21015KT 12/05 A2984 RMK A01 T01220049  RH  061%=      5-min Rain = 0
KRO1 181454Z 21014KT 12/05 A2984 RMK A01 T01230050  RH  061%=      5-min Rain = 0
KRO1 181455Z 21016KT 12/05 A2984 RMK A01 T01240051  RH  061%=      5-min Rain = 0
KRO1 181456Z 21015KT 12/05 A2984 RMK A01 T01240050  RH  061%=      5-min Rain = 0
KRO1 181457Z 21016KT 13/05 A2984 RMK A01 T01250051  RH  061%=      5-min Rain = 0
KRO1 181458Z 21017KT 13/05 A2984 RMK A01 T01250050  RH  060%=      5-min Rain = 0
KRO1 181459Z 21016KT 13/05 A2984 RMK A01 T01260051  RH  060%=      5-min Rain = 0
KRO1 181500Z 21015KT 13/05 A2984 RMK A01 T01260051  RH  060%=      5-min Rain = 0
KRO1 181501Z 22015KT 13/05 A2984 RMK A01 T01260052  RH  060%=      5-min Rain = 0
KRO1 181502Z 22017KT 13/05 A2984 RMK A01 T01270051  RH  060%=      5-min Rain = 0
KRO1 181503Z 22019KT 13/05 A2984 RMK A01 T01270051  RH  060%=      5-min Rain = 0
KRO1 181504Z 22019KT 13/05 A2984 RMK A01 T01280051  RH  059%=      5-min Rain = 0
KRO1 181505Z 22019KT 13/05 A2984 RMK A01 T01280050  RH  059%=      5-min Rain = 0
KRO1 181506Z 22017KT 13/05 A2984 RMK A01 T01290051  RH  059%=      5-min Rain = 0
KRO1 181507Z 21018KT 13/05 A2984 RMK A01 T01290051  RH  059%=      5-min Rain = 0
KRO1 181508Z 21017KT 13/05 A2984 RMK A01 T01290052  RH  059%=      5-min Rain = 0
KRO1 181509Z 21021KT 13/05 A2983 RMK A01 T01300052  RH  059%=      5-min Rain = 0
KRO1 181510Z 21020KT 13/05 A2983 RMK A01 T01300051  RH  059%=      5-min Rain = 0
KRO1 181511Z 21020KT 13/05 A2983 RMK A01 T01310052  RH  059%=      5-min Rain = 0
KRO1 181512Z 21021KT 13/05 A2983 RMK A01 T01310052  RH  059%=      5-min Rain = 0
KRO1 181513Z 21020KT 13/05 A2983 RMK A01 T01310052  RH  059%=      5-min Rain = 0
KRO1 181514Z 21018KT 13/05 A2983 RMK A01 T01320054  RH  059%=      5-min Rain = 0
KRO1 181515Z 21019KT 13/06 A2983 RMK A01 T01330055  RH  059%=      5-min Rain = 0
KRO1 181516Z 21021KT 13/05 A2983 RMK A01 T01330053  RH  058%=      5-min Rain = 0
KRO1 181517Z 21019KT 13/05 A2983 RMK A01 T01340053  RH  058%=      5-min Rain = 0
KRO1 181518Z 21018KT 13/06 A2983 RMK A01 T01340055  RH  059%=      5-min Rain = 0
KRO1 181519Z 21019KT 14/05 A2983 RMK A01 T01350054  RH  058%=      5-min Rain = 0
KRO1 181520Z 21021KT 14/06 A2983 RMK A01 T01360055  RH  058%=      5-min Rain = 0
KRO1 181521Z 21021KT 14/05 A2983 RMK A01 T01370054  RH  057%=      5-min Rain = 0
KRO1 181522Z 21019G24KT 14/06 A2983 RMK A01 T01370055  RH  057%=      5-min Rain = 0
KRO1 181523Z 21020KT 14/06 A2983 RMK A01 T01380056  RH  058%=      5-min Rain = 0
KRO1 181524Z 21021KT 14/06 A2983 RMK A01 T01390055  RH  057%=      5-min Rain = 0
KRO1 181525Z 21019KT 14/06 A2983 RMK A01 T01390055  RH  057%=      5-min Rain = 0
KRO1 181526Z 21020KT 14/06 A2983 RMK A01 T01400056  RH  057%=      5-min Rain = 0
KRO1 181527Z 21021KT 14/06 A2982 RMK A01 T01400055  RH  056%=      5-min Rain = 0
KRO1 181528Z 21017KT 14/06 A2983 RMK A01 T01400056  RH  057%=      5-min Rain = 0
KRO1 181529Z 21017KT 14/06 A2983 RMK A01 T01380058  RH  058%=      5-min Rain = 0
KRO1 181530Z 21019KT 14/06 A2983 RMK A01 T01370055  RH  057%=      5-min Rain = 0
KRO1 181531Z 21019KT 14/05 A2983 RMK A01 T01370053  RH  057%=      5-min Rain = 0
KRO1 181532Z 20019KT 14/05 A2983 RMK A01 T01360054  RH  058%=      5-min Rain = 0
KRO1 181533Z 21018KT 14/05 A2983 RMK A01 T01350054  RH  058%=      5-min Rain = 0
KRO1 181534Z 21017KT 13/05 A2983 RMK A01 T01340054  RH  058%=      5-min Rain = 0
KRO1 181535Z 21015KT 14/06 A2983 RMK A01 T01350055  RH  058%=      5-min Rain = 0
KRO1 181536Z 21017KT 14/06 A2983 RMK A01 T01350055  RH  058%=      5-min Rain = 0
KRO1 181537Z 21016KT 14/06 A2983 RMK A01 T01350055  RH  058%=      5-min Rain = 0
KRO1 181538Z 21016KT 14/06 A2983 RMK A01 T01360055  RH  058%=      5-min Rain = 0
KRO1 181539Z 21015KT 14/06 A2983 RMK A01 T01370056  RH  058%=      5-min Rain = 0
KRO1 181540Z 21014KT 14/06 A2983 RMK A01 T01390058  RH  058%=      5-min Rain = 0
KRO1 181541Z 21016KT 14/06 A2983 RMK A01 T01400057  RH  057%=      5-min Rain = 0
KRO1 181542Z 21015KT 14/06 A2983 RMK A01 T01410056  RH  057%=      5-min Rain = 0
KRO1 181543Z 21015KT 14/06 A2983 RMK A01 T01410057  RH  057%=      5-min Rain = 0
KRO1 181544Z 21014KT 14/06 A2983 RMK A01 T01410058  RH  057%=      5-min Rain = 0
KRO1 181545Z 21016KT 14/06 A2983 RMK A01 T01410058  RH  057%=      5-min Rain = 0
KRO1 181546Z 21016KT 14/06 A2983 RMK A01 T01420058  RH  057%=      5-min Rain = 0
KRO1 181547Z 21017KT 14/06 A2983 RMK A01 T01430058  RH  056%=      5-min Rain = 0
KRO1 181548Z 21016KT 14/06 A2983 RMK A01 T01440056  RH  056%=      5-min Rain = 0
KRO1 181549Z 21015KT 14/06 A2983 RMK A01 T01430058  RH  056%=      5-min Rain = 0
KRO1 181550Z 21016KT 14/06 A2984 RMK A01 T01430058  RH  056%=      5-min Rain = 0
KRO1 181551Z 21015KT 14/06 A2984 RMK A01 T01440057  RH  056%=      5-min Rain = 0
KRO1 181552Z 21016KT 14/06 A2984 RMK A01 T01440057  RH  056%=      5-min Rain = 0
KRO1 181553Z 22015KT 14/06 A2984 RMK A01 T01440057  RH  056%=      5-min Rain = 0
KRO1 181554Z 22015KT 15/06 A2984 RMK A01 T01460057  RH  055%=      5-min Rain = 0
KRO1 181555Z 22013KT 15/06 A2984 RMK A01 T01470058  RH  055%=      5-min Rain = 0
KRO1 181556Z 22015KT 15/06 A2984 RMK A01 T01490058  RH  054%=      5-min Rain = 0
KRO1 181557Z 22012KT 15/06 A2984 RMK A01 T01510059  RH  054%=      5-min Rain = 0
KRO1 181558Z 22014KT 15/06 A2984 RMK A01 T01520059  RH  054%=      5-min Rain = 0
KRO1 181559Z 23014KT 15/06 A2984 RMK A01 T01520058  RH  053%=      5-min Rain = 0
KRO1 181600Z 22013KT 15/06 A2984 RMK A01 T01530060  RH  054%=      5-min Rain = 0
KRO1 181601Z 22016KT 16/06 A2984 RMK A01 T01550058  RH  053%=      5-min Rain = 0
KRO1 181602Z 23016KT 16/06 A2984 RMK A01 T01550057  RH  052%=      5-min Rain = 0
KRO1 181603Z 23017KT 16/06 A2984 RMK A01 T01560057  RH  052%=      5-min Rain = 0
KRO1 181604Z 22019KT 16/06 A2984 RMK A01 T01560056  RH  051%=      5-min Rain = 0
KRO1 181605Z 22017KT 16/06 A2983 RMK A01 T01550057  RH  052%=      5-min Rain = 0
KRO1 181606Z 22015KT 16/06 A2983 RMK A01 T01550057  RH  052%=      5-min Rain = 0
KRO1 181607Z 22018G23KT 16/06 A2983 RMK A01 T01560058  RH  052%=      5-min Rain = 0
KRO1 181608Z 22017KT 16/06 A2983 RMK A01 T01550058  RH  052%=      5-min Rain = 0
KRO1 181609Z 22018KT 16/06 A2983 RMK A01 T01550057  RH  052%=      5-min Rain = 0
KRO1 181610Z 22020KT 15/06 A2983 RMK A01 T01540056  RH  052%=      5-min Rain = 0
KRO1 181611Z 22017KT 15/06 A2983 RMK A01 T01530055  RH  052%=      5-min Rain = 0
KRO1 181612Z 22016KT 15/06 A2983 RMK A01 T01530055  RH  052%=      5-min Rain = 0
KRO1 181613Z 22019KT 15/06 A2983 RMK A01 T01530056  RH  052%=      5-min Rain = 0
KRO1 181614Z 22016KT 15/05 A2983 RMK A01 T01520054  RH  052%=      5-min Rain = 0
KRO1 181615Z 22017KT 15/06 A2983 RMK A01 T01520056  RH  052%=      5-min Rain = 0
KRO1 181616Z 22017KT 15/06 A2983 RMK A01 T01520055  RH  052%=      5-min Rain = 0
KRO1 181617Z 22016KT 15/05 A2983 RMK A01 T01520054  RH  052%=      5-min Rain = 0
KRO1 181618Z 22014KT 15/06 A2983 RMK A01 T01520055  RH  052%=      5-min Rain = 0
KRO1 181619Z 21018KT 15/06 A2983 RMK A01 T01540056  RH  052%=      5-min Rain = 0
KRO1 181620Z 22018KT 16/06 A2983 RMK A01 T01570056  RH  051%=      5-min Rain = 0
KRO1 181621Z 22017KT 16/06 A2983 RMK A01 T01590055  RH  050%=      5-min Rain = 0
KRO1 181622Z 22017KT 16/06 A2983 RMK A01 T01590055  RH  050%=      5-min Rain = 0
KRO1 181623Z 22016G21KT 16/06 A2983 RMK A01 T01590056  RH  050%=      5-min Rain = 0
KRO1 181624Z 22018KT 16/06 A2983 RMK A01 T01600057  RH  050%=      5-min Rain = 0
KRO1 181625Z 22018KT 16/05 A2982 RMK A01 T01610054  RH  049%=      5-min Rain = 0
KRO1 181626Z 22018KT 16/06 A2983 RMK A01 T01620055  RH  049%=      5-min Rain = 0
KRO1 181627Z 22018KT 16/06 A2983 RMK A01 T01640056  RH  049%=      5-min Rain = 0
KRO1 181628Z 22016KT 17/06 A2983 RMK A01 T01650058  RH  049%=      5-min Rain = 0
KRO1 181629Z 22018KT 17/06 A2983 RMK A01 T01660057  RH  048%=      5-min Rain = 0
KRO1 181630Z 22019KT 17/06 A2983 RMK A01 T01680057  RH  048%=      5-min Rain = 0
KRO1 181631Z 22019KT 17/06 A2983 RMK A01 T01680056  RH  048%=      5-min Rain = 0
KRO1 181632Z 22019KT 17/06 A2983 RMK A01 T01690058  RH  048%=      5-min Rain = 0
KRO1 181633Z 22020KT 17/06 A2983 RMK A01 T01700057  RH  047%=      5-min Rain = 0
KRO1 181634Z 22018KT 17/06 A2983 RMK A01 T01700056  RH  047%=      5-min Rain = 0
KRO1 181635Z 22020KT 17/06 A2983 RMK A01 T01700057  RH  047%=      5-min Rain = 0
KRO1 181636Z 23021KT 17/05 A2983 RMK A01 T01710054  RH  046%=      5-min Rain = 0
KRO1 181637Z 23018G23KT 17/06 A2983 RMK A01 T01710055  RH  046%=      5-min Rain = 0
KRO1 181638Z 23019G25KT 17/06 A2983 RMK A01 T01720056  RH  046%=      5-min Rain = 0
KRO1 181639Z 23022KT 17/06 A2983 RMK A01 T01720056  RH  046%=      5-min Rain = 0
KRO1 181640Z 23017KT 17/06 A2983 RMK A01 T01720056  RH  046%=      5-min Rain = 0
KRO1 181641Z 23018KT 17/06 A2983 RMK A01 T01730058  RH  047%=      5-min Rain = 0
KRO1 181642Z 22017KT 17/06 A2983 RMK A01 T01740056  RH  046%=      5-min Rain = 0
KRO1 181643Z 22016KT 17/06 A2983 RMK A01 T01740057  RH  046%=      5-min Rain = 0
KRO1 181644Z 23015KT 18/06 A2982 RMK A01 T01750059  RH  046%=      5-min Rain = 0
KRO1 181645Z 23016KT 18/06 A2982 RMK A01 T01760059  RH  046%=      5-min Rain = 0
KRO1 181646Z 22019KT 18/06 A2982 RMK A01 T01770057  RH  045%=      5-min Rain = 0
KRO1 181647Z 22018KT 18/06 A2982 RMK A01 T01770059  RH  046%=      5-min Rain = 0
KRO1 181648Z 23020KT 18/06 A2982 RMK A01 T01770056  RH  045%=      5-min Rain = 0
KRO1 181649Z 22020KT 18/06 A2982 RMK A01 T01770056  RH  045%=      5-min Rain = 0
KRO1 181650Z 22021KT 18/06 A2982 RMK A01 T01770055  RH  045%=      5-min Rain = 0
KRO1 181651Z 22021KT 18/06 A2982 RMK A01 T01770057  RH  045%=      5-min Rain = 0
KRO1 181652Z 22019KT 18/06 A2981 RMK A01 T01770057  RH  045%=      5-min Rain = 0
KRO1 181653Z 22020KT 18/06 A2981 RMK A01 T01770056  RH  045%=      5-min Rain = 0
KRO1 181654Z 22021KT 18/06 A2981 RMK A01 T01770057  RH  045%=      5-min Rain = 0
KRO1 181655Z 22020KT 18/06 A2981 RMK A01 T01790058  RH  045%=      5-min Rain = 0
KRO1 181656Z 22021KT 18/06 A2981 RMK A01 T01800056  RH  044%=      5-min Rain = 0
KRO1 181657Z 22020KT 18/06 A2981 RMK A01 T01800057  RH  044%=      5-min Rain = 0
KRO1 181658Z 22020KT 18/06 A2981 RMK A01 T01820056  RH  044%=      5-min Rain = 0
KRO1 181659Z 22022KT 18/06 A2981 RMK A01 T01820055  RH  043%=      5-min Rain = 0
KRO1 181700Z 22023G28KT 18/06 A2981 RMK A01 T01820056  RH  043%=      5-min Rain = 0
KRO1 181701Z 23023KT 18/05 A2981 RMK A01 T01830054  RH  043%=      5-min Rain = 0
KRO1 181702Z 22021G27KT 18/05 A2981 RMK A01 T01840054  RH  042%=      5-min Rain = 0
KRO1 181703Z 22022KT 19/05 A2981 RMK A01 T01850054  RH  042%=      5-min Rain = 0
KRO1 181704Z 22019KT 19/06 A2981 RMK A01 T01860055  RH  042%=      5-min Rain = 0
KRO1 181705Z 22021KT 19/05 A2981 RMK A01 T01860053  RH  042%=      5-min Rain = 0
KRO1 181706Z 22020KT 19/05 A2981 RMK A01 T01870054  RH  042%=      5-min Rain = 0
KRO1 181707Z 22020KT 19/06 A2981 RMK A01 T01880055  RH  042%=      5-min Rain = 0
KRO1 181708Z 22022KT 19/06 A2981 RMK A01 T01890055  RH  041%=      5-min Rain = 0
KRO1 181709Z 23023KT 19/05 A2981 RMK A01 T01900054  RH  041%=      5-min Rain = 0
KRO1 181710Z 23022KT 19/05 A2981 RMK A01 T01900054  RH  041%=      5-min Rain = 0
KRO1 181711Z 22022KT 19/06 A2981 RMK A01 T01900055  RH  041%=      5-min Rain = 0
KRO1 181712Z 22022KT 19/06 A2981 RMK A01 T01910055  RH  041%=      5-min Rain = 0
KRO1 181713Z 22024KT 19/05 A2981 RMK A01 T01920053  RH  040%=      5-min Rain = 0
KRO1 181714Z 22022KT 19/06 A2981 RMK A01 T01920055  RH  041%=      5-min Rain = 0
KRO1 181715Z 22020KT 19/05 A298 RMK A01 T01930054  RH  040%=      5-min Rain = 0
KRO1 181716Z 23021KT 19/05 A2981 RMK A01 T01930053  RH  040%=      5-min Rain = 0
KRO1 181717Z 22021KT 19/06 A2981 RMK A01 T01940055  RH  040%=      5-min Rain = 0
KRO1 181718Z 22022KT 19/06 A2981 RMK A01 T01940056  RH  040%=      5-min Rain = 0
KRO1 181719Z 23020KT 20/06 A2981 RMK A01 T01950055  RH  040%=      5-min Rain = 0
KRO1 181720Z 22022KT 20/06 A2981 RMK A01 T01960057  RH  040%=      5-min Rain = 0
KRO1 181721Z 22020KT 20/06 A2981 RMK A01 T01960057  RH  040%=      5-min Rain = 0
KRO1 181722Z 23022KT 20/05 A2981 RMK A01 T01960054  RH  039%=      5-min Rain = 0
KRO1 181723Z 22022G27KT 20/06 A298 RMK A01 T01960055  RH  040%=      5-min Rain = 0
KRO1 181724Z 23020KT 20/06 A2981 RMK A01 T01960056  RH  040%=      5-min Rain = 0
KRO1 181725Z 22021KT 20/06 A298 RMK A01 T01960056  RH  040%=      5-min Rain = 0
KRO1 181726Z 22022KT 20/06 A298 RMK A01 T01970056  RH  040%=      5-min Rain = 0
KRO1 181727Z 22024G31KT 20/06 A298 RMK A01 T01970055  RH  039%=      5-min Rain = 0
KRO1 181728Z 22023KT 20/05 A298 RMK A01 T01970054  RH  039%=      5-min Rain = 0
KRO1 181729Z 22024KT 20/05 A2979 RMK A01 T01970054  RH  039%=      5-min Rain = 0
KRO1 181730Z 22022KT 20/06 A2979 RMK A01 T01970056  RH  040%=      5-min Rain = 0
KRO1 181731Z 22022KT 20/06 A298 RMK A01 T01970056  RH  040%=      5-min Rain = 0
KRO1 181732Z 22022KT 20/06 A2979 RMK A01 T01970057  RH  040%=      5-min Rain = 0
KRO1 181733Z 22020KT 20/06 A2979 RMK A01 T01980057  RH  040%=      5-min Rain = 0
KRO1 181734Z 22021KT 20/06 A2979 RMK A01 T01990058  RH  040%=      5-min Rain = 0
KRO1 181735Z 22022KT 20/06 A2979 RMK A01 T01990057  RH  039%=      5-min Rain = 0
KRO1 181736Z 21022KT 20/06 A2979 RMK A01 T01990057  RH  039%=      5-min Rain = 0
KRO1 181737Z 22022KT 20/06 A2979 RMK A01 T02000056  RH  039%=      5-min Rain = 0
KRO1 181738Z 22021KT 20/06 A2979 RMK A01 T02000055  RH  039%=      5-min Rain = 0
KRO1 181739Z 22023KT 20/05 A2979 RMK A01 T02010053  RH  038%=      5-min Rain = 0
KRO1 181740Z 22021KT 20/05 A2979 RMK A01 T02010054  RH  038%=      5-min Rain = 0
KRO1 181741Z 22021KT 20/06 A2979 RMK A01 T02020055  RH  038%=      5-min Rain = 0
KRO1 181742Z 22021KT 20/06 A2979 RMK A01 T02030056  RH  038%=      5-min Rain = 0
KRO1 181743Z 22020KT 20/06 A2979 RMK A01 T02040055  RH  038%=      5-min Rain = 0
KRO1 181744Z 22019KT 21/06 A2979 RMK A01 T02050057  RH  038%=      5-min Rain = 0
KRO1 181745Z 22018KT 21/06 A2979 RMK A01 T02050056  RH  037%=      5-min Rain = 0
KRO1 181746Z 22021G26KT 21/05 A2978 RMK A01 T02060054  RH  037%=      5-min Rain = 0
KRO1 181747Z 22021G26KT 21/05 A2978 RMK A01 T02060051  RH  036%=      5-min Rain = 0
KRO1 181748Z 23019KT 21/05 A2978 RMK A01 T02070053  RH  037%=      5-min Rain = 0
KRO1 181749Z 23020G25KT 21/06 A2978 RMK A01 T02080055  RH  037%=      5-min Rain = 0
KRO1 181750Z 23017KT 21/06 A2978 RMK A01 T02080058  RH  037%=      5-min Rain = 0
KRO1 181751Z 22019KT 21/06 A2978 RMK A01 T02100057  RH  037%=      5-min Rain = 0
KRO1 181752Z 22016KT 21/06 A2978 RMK A01 T02110060  RH  037%=      5-min Rain = 0
KRO1 181753Z 22020KT 21/06 A2978 RMK A01 T02130058  RH  036%=      5-min Rain = 0
KRO1 181754Z 23027G32KT 21/05 A2978 RMK A01 T02140051  RH  034%=      5-min Rain = 0
KRO1 181755Z 23024KT 21/05 A2978 RMK A01 T02140046  RH  033%=      5-min Rain = 0
KRO1 181756Z 23025KT 22/05 A2978 RMK A01 T02160048  RH  034%=      5-min Rain = 0
KRO1 181757Z 23021G27KT 22/05 A2978 RMK A01 T02160046  RH  033%=      5-min Rain = 0
KRO1 181758Z 23021KT 22/05 A2978 RMK A01 T02160048  RH  033%=      5-min Rain = 0
KRO1 181759Z 23022KT 22/05 A2978 RMK A01 T02170049  RH  033%=      5-min Rain = 0
KRO1 181800Z 23026G31KT 22/05 A2978 RMK A01 T02180045  RH  032%=      5-min Rain = 0
KRO1 181801Z 23027KT 22/04 A2978 RMK A01 T02180041  RH  031%=      5-min Rain = 0
KRO1 181802Z 24021KT 22/05 A2977 RMK A01 T02180045  RH  032%=      5-min Rain = 0
KRO1 181803Z 24023KT 22/04 A2977 RMK A01 T02180043  RH  032%=      5-min Rain = 0
KRO1 181804Z 24023G32KT 22/04 A2977 RMK A01 T02190042  RH  031%=      5-min Rain = 0
KRO1 181805Z 24025KT 22/04 A2977 RMK A01 T02180038  RH  031%=      5-min Rain = 0
KRO1 181806Z 23025KT 22/04 A2977 RMK A01 T02170042  RH  032%=      5-min Rain = 0
KRO1 181807Z 23021KT 22/04 A2977 RMK A01 T02170043  RH  032%=      5-min Rain = 0
KRO1 181808Z 23021G26KT 22/04 A2977 RMK A01 T02190044  RH  032%=      5-min Rain = 0
KRO1 181809Z 24023KT 22/04 A2977 RMK A01 T02200042  RH  031%=      5-min Rain = 0
KRO1 181810Z 24026KT 22/04 A2976 RMK A01 T02200040  RH  031%=      5-min Rain = 0
KRO1 181811Z 24027G32KT 22/04 A2976 RMK A01 T02180038  RH  031%=      5-min Rain = 0
KRO1 181812Z 24025KT 22/04 A2976 RMK A01 T02170039  RH  031%=      5-min Rain = 0
KRO1 181813Z 24023G28KT 22/04 A2976 RMK A01 T02180041  RH  032%=      5-min Rain = 0
KRO1 181814Z 23022G27KT 22/04 A2976 RMK A01 T02200044  RH  032%=      5-min Rain = 0
KRO1 181815Z 23024KT 22/04 A2976 RMK A01 T02200043  RH  031%=      5-min Rain = 0
KRO1 181816Z 23021G26KT 22/04 A2976 RMK A01 T02200043  RH  031%=      5-min Rain = 0
KRO1 181817Z 23024KT 22/04 A2976 RMK A01 T02210043  RH  031%=      5-min Rain = 0
KRO1 181818Z 23024G29KT 22/04 A2976 RMK A01 T02210041  RH  031%=      5-min Rain = 0
KRO1 181819Z 23026KT 22/04 A2975 RMK A01 T02210041  RH  031%=      5-min Rain = 0
KRO1 181820Z 23024G30KT 22/04 A2975 RMK A01 T02200040  RH  031%=      5-min Rain = 0
KRO1 181821Z 24024KT 22/04 A2975 RMK A01 T02210040  RH  031%=      5-min Rain = 0
KRO1 181822Z 23026KT 22/04 A2975 RMK A01 T02210040  RH  031%=      5-min Rain = 0
KRO1 181823Z 23025KT 22/04 A2975 RMK A01 T02210039  RH  030%=      5-min Rain = 0
KRO1 181824Z 23024G29KT 22/04 A2975 RMK A01 T02210040  RH  031%=      5-min Rain = 0
KRO1 181825Z 24027G32KT 22/04 A2974 RMK A01 T02220039  RH  030%=      5-min Rain = 0
KRO1 181826Z 24023KT 22/04 A2974 RMK A01 T02220040  RH  030%=      5-min Rain = 0
KRO1 181827Z 23027KT 22/04 A2974 RMK A01 T02220039  RH  030%=      5-min Rain = 0
KRO1 181828Z 23029KT 22/03 A2974 RMK A01 T02210034  RH  029%=      5-min Rain = 0
KRO1 181829Z 23027KT 22/03 A2974 RMK A01 T02200034  RH  029%=      5-min Rain = 0
KRO1 181830Z 23028KT 22/03 A2974 RMK A01 T02200034  RH  029%=      5-min Rain = 0
KRO1 181831Z 23024KT 22/04 A2974 RMK A01 T02210035  RH  030%=      5-min Rain = 0
KRO1 181832Z 22026G31KT 22/03 A2974 RMK A01 T02200034  RH  029%=      5-min Rain = 0
KRO1 181833Z 23027KT 22/03 A2973 RMK A01 T02200032  RH  029%=      5-min Rain = 0
KRO1 181834Z 23025G30KT 22/04 A2973 RMK A01 T02200035  RH  030%=      5-min Rain = 0
KRO1 181835Z 23026KT 22/03 A2973 RMK A01 T02210034  RH  029%=      5-min Rain = 0
KRO1 181836Z 24022KT 22/04 A2973 RMK A01 T02220036  RH  029%=      5-min Rain = 0
KRO1 181837Z 23020G29KT 22/04 A2973 RMK A01 T02240040  RH  030%=      5-min Rain = 0
KRO1 181838Z 23024KT 23/04 A2973 RMK A01 T02250037  RH  029%=      5-min Rain = 0
KRO1 181839Z 24022G29KT 23/04 A2973 RMK A01 T02260037  RH  029%=      5-min Rain = 0
KRO1 181840Z 24025KT 22/03 A2973 RMK A01 T02240034  RH  029%=      5-min Rain = 0
KRO1 181841Z 24022KT 22/04 A2973 RMK A01 T02230036  RH  029%=      5-min Rain = 0
KRO1 181842Z 23023KT 22/04 A2973 RMK A01 T02240037  RH  029%=      5-min Rain = 0
KRO1 181843Z 23022KT 23/04 A2973 RMK A01 T02250037  RH  029%=      5-min Rain = 0
KRO1 181844Z 23021KT 23/04 A2972 RMK A01 T02250038  RH  029%=      5-min Rain = 0
KRO1 181845Z 24020KT 23/04 A2972 RMK A01 T02270040  RH  029%=      5-min Rain = 0
KRO1 181846Z 24024G31KT 23/04 A2972 RMK A01 T02280038  RH  029%=      5-min Rain = 0
KRO1 181847Z 24026KT 23/04 A2972 RMK A01 T02270036  RH  029%=      5-min Rain = 0
KRO1 181848Z 24027KT 23/03 A2972 RMK A01 T02270034  RH  028%=      5-min Rain = 0
KRO1 181849Z 24024KT 23/03 A2972 RMK A01 T02260033  RH  028%=      5-min Rain = 0
KRO1 181850Z 24024G29KT 23/03 A2972 RMK A01 T02250032  RH  028%=      5-min Rain = 0
KRO1 181851Z 24022KT 22/03 A2972 RMK A01 T02240033  RH  028%=      5-min Rain = 0
KRO1 181852Z 24026KT 22/03 A2971 RMK A01 T02240033  RH  029%=      5-min Rain = 0
KRO1 181853Z 24025G30KT 22/03 A2971 RMK A01 T02240032  RH  028%=      5-min Rain = 0
KRO1 181854Z 24024KT 22/03 A2971 RMK A01 T02240034  RH  029%=      5-min Rain = 0
KRO1 181855Z 24022KT 22/03 A2971 RMK A01 T02240032  RH  028%=      5-min Rain = 0
KRO1 181856Z 25020KT 22/03 A2971 RMK A01 T02240034  RH  029%=      5-min Rain = 0
KRO1 181857Z 23018G25KT 23/04 A2971 RMK A01 T02260037  RH  029%=      5-min Rain = 0
KRO1 181858Z 23021G26KT 23/04 A2971 RMK A01 T02270038  RH  029%=      5-min Rain = 0
KRO1 181859Z 23020KT 23/04 A2971 RMK A01 T02280039  RH  029%=      5-min Rain = 0
KRO1 181900Z 23022KT 23/04 A2971 RMK A01 T02290038  RH  029%=      5-min Rain = 0
KRO1 181901Z 23023KT 23/04 A297 RMK A01 T02290035  RH  028%=      5-min Rain = 0
KRO1 181902Z 23027KT 23/03 A297 RMK A01 T02270034  RH  028%=      5-min Rain = 0
KRO1 181903Z 23021KT 23/03 A297 RMK A01 T02260033  RH  028%=      5-min Rain = 0
KRO1 181904Z 23021KT 23/04 A297 RMK A01 T02260037  RH  029%=      5-min Rain = 0
KRO1 181905Z 23023KT 23/04 A297 RMK A01 T02260037  RH  029%=      5-min Rain = 0
KRO1 181906Z 23019G24KT 23/04 A297 RMK A01 T02260037  RH  029%=      5-min Rain = 0
KRO1 181907Z 23021KT 23/04 A297 RMK A01 T02260038  RH  029%=      5-min Rain = 0
KRO1 181908Z 23020KT 23/04 A297 RMK A01 T02260036  RH  029%=      5-min Rain = 0
KRO1 181909Z 23022G28KT 23/04 A297 RMK A01 T02260037  RH  029%=      5-min Rain = 0
KRO1 181910Z 23021KT 23/04 A297 RMK A01 T02260037  RH  029%=      5-min Rain = 0
KRO1 181911Z 23021KT 23/04 A297 RMK A01 T02280038  RH  029%=      5-min Rain = 0
KRO1 181912Z 25025G32KT 23/04 A297 RMK A01 T02300036  RH  028%=      5-min Rain = 0
KRO1 181913Z 25029KT 23/03 A297 RMK A01 T02300029  RH  027%=      5-min Rain = 0
KRO1 181914Z 25027KT 23/03 A297 RMK A01 T02290026  RH  026%=      5-min Rain = 0
KRO1 181915Z 24026G31KT 23/03 A297 RMK A01 T02280027  RH  027%=      5-min Rain = 0
KRO1 181916Z 25026G33KT 23/03 A297 RMK A01 T02270028  RH  027%=      5-min Rain = 0
KRO1 181917Z 25027G33KT 23/03 A297 RMK A01 T02270028  RH  027%=      5-min Rain = 0
KRO1 181918Z 25022KT 23/03 A297 RMK A01 T02270030  RH  027%=      5-min Rain = 0
KRO1 181919Z 24026KT 23/03 A297 RMK A01 T02260029  RH  027%=      5-min Rain = 0
KRO1 181920Z 24028KT 23/03 A297 RMK A01 T02250026  RH  027%=      5-min Rain = 0
KRO1 181921Z 24028KT 22/03 A297 RMK A01 T02240027  RH  027%=      5-min Rain = 0
KRO1 181922Z 25026G31KT 22/03 A297 RMK A01 T02240026  RH  027%=      5-min Rain = 0
KRO1 181923Z 24025G31KT 22/03 A297 RMK A01 T02230027  RH  028%=      5-min Rain = 0
KRO1 181924Z 24028KT 22/03 A297 RMK A01 T02230027  RH  028%=      5-min Rain = 0
KRO1 181925Z 24026KT 22/03 A297 RMK A01 T02230026  RH  027%=      5-min Rain = 0
KRO1 181926Z 25022KT 22/03 A297 RMK A01 T02230029  RH  028%=      5-min Rain = 0
KRO1 181927Z 25023KT 22/03 A297 RMK A01 T02230029  RH  028%=      5-min Rain = 0
KRO1 181928Z 25022KT 22/03 A297 RMK A01 T02230028  RH  028%=      5-min Rain = 0
KRO1 181929Z 24020KT 22/03 A297 RMK A01 T02240031  RH  028%=      5-min Rain = 0
KRO1 181930Z 24020KT 23/03 A297 RMK A01 T02250031  RH  028%=      5-min Rain = 0
KRO1 181931Z 24028G34KT 23/03 A2969 RMK A01 T02250028  RH  027%=      5-min Rain = 0
KRO1 181932Z 24029KT 22/03 A2969 RMK A01 T02240025  RH  027%=      5-min Rain = 0
KRO1 181933Z 24030KT 22/03 A2969 RMK A01 T02240027  RH  027%=      5-min Rain = 0
KRO1 181934Z 24028KT 22/03 A2969 RMK A01 T02240027  RH  027%=      5-min Rain = 0
KRO1 181935Z 24025G31KT 22/03 A2969 RMK A01 T02240029  RH  028%=      5-min Rain = 0
KRO1 181936Z 24028KT 22/03 A2969 RMK A01 T02240029  RH  028%=      5-min Rain = 0
KRO1 181937Z 24031G37KT 22/03 A2969 RMK A01 T02230027  RH  028%=      5-min Rain = 0
KRO1 181938Z 24029KT 22/03 A2968 RMK A01 T02230026  RH  027%=      5-min Rain = 0
KRO1 181939Z 24032KT 22/03 A2968 RMK A01 T02210026  RH  028%=      5-min Rain = 0
KRO1 181940Z 24031G36KT 22/03 A2968 RMK A01 T02210026  RH  028%=      5-min Rain = 0
KRO1 181941Z 24028KT 22/03 A2968 RMK A01 T02200026  RH  028%=      5-min Rain = 0
KRO1 181942Z 24027G32KT 22/03 A2968 RMK A01 T02210028  RH  028%=      5-min Rain = 0
KRO1 181943Z 24029KT 22/03 A2968 RMK A01 T02200028  RH  028%=      5-min Rain = 0
KRO1 181944Z 24029G34KT 22/03 A2968 RMK A01 T02200026  RH  028%=      5-min Rain = 0
KRO1 181945Z 24028G34KT 22/03 A2968 RMK A01 T02190025  RH  028%=      5-min Rain = 0
KRO1 181946Z 24029G35KT 22/03 A2968 RMK A01 T02190026  RH  028%=      5-min Rain = 0
KRO1 181947Z 24024KT 22/03 A2969 RMK A01 T02190027  RH  028%=      5-min Rain = 0
KRO1 181948Z 24028G35KT 22/03 A2968 RMK A01 T02180027  RH  028%=      5-min Rain = 0
KRO1 181949Z 24030KT 22/03 A2968 RMK A01 T02180025  RH  028%=      5-min Rain = 0
KRO1 181950Z 24028KT 22/03 A2968 RMK A01 T02170025  RH  028%=      5-min Rain = 0
KRO1 181951Z 24026KT 22/03 A2968 RMK A01 T02170027  RH  029%=      5-min Rain = 0
KRO1 181952Z 25026KT 22/03 A2968 RMK A01 T02170027  RH  029%=      5-min Rain = 0
KRO1 181953Z 24023KT 22/03 A2968 RMK A01 T02160027  RH  029%=      5-min Rain = 0
KRO1 181954Z 25026KT 22/03 A2968 RMK A01 T02160027  RH  029%=      5-min Rain = 0
KRO1 181955Z 24028G33KT 22/03 A2968 RMK A01 T02150026  RH  029%=      5-min Rain = 0
KRO1 181956Z 25025G31KT 22/03 A2968 RMK A01 T02150027  RH  029%=      5-min Rain = 0
KRO1 181957Z 25023KT 22/03 A2968 RMK A01 T02150028  RH  029%=      5-min Rain = 0
KRO1 181958Z 25022KT 22/03 A2968 RMK A01 T02150029  RH  029%=      5-min Rain = 0
KRO1 181959Z 24024KT 21/03 A2968 RMK A01 T02140028  RH  029%=      5-min Rain = 0
KRO1 182000Z 25026KT 21/03 A2967 RMK A01 T02140027  RH  029%=      5-min Rain = 0
KRO1 182001Z 25026G31KT 22/03 A2967 RMK A01 T02150026  RH  029%=      5-min Rain = 0
KRO1 182002Z 25024KT 22/03 A2967 RMK A01 T02150027  RH  029%=      5-min Rain = 0
KRO1 182003Z 24024KT 21/03 A2967 RMK A01 T02140026  RH  029%=      5-min Rain = 0
KRO1 182004Z 24027KT 21/03 A2967 RMK A01 T02140027  RH  029%=      5-min Rain = 0
KRO1 182005Z 24026G31KT 21/03 A2967 RMK A01 T02140026  RH  029%=      5-min Rain = 0
KRO1 182006Z 24026G31KT 21/03 A2967 RMK A01 T02140025  RH  029%=      5-min Rain = 0
KRO1 182007Z 24024KT 22/03 A2967 RMK A01 T02150027  RH  029%=      5-min Rain = 0
KRO1 182008Z 25025KT 22/03 A2967 RMK A01 T02150027  RH  029%=      5-min Rain = 0
KRO1 182009Z 24025KT 22/03 A2967 RMK A01 T02150026  RH  029%=      5-min Rain = 0
KRO1 182010Z 24022KT 22/03 A2967 RMK A01 T02150026  RH  029%=      5-min Rain = 0
KRO1 182011Z 24027KT 22/03 A2967 RMK A01 T02150027  RH  029%=      5-min Rain = 0
KRO1 182012Z 25025KT 22/03 A2967 RMK A01 T02150025  RH  028%=      5-min Rain = 0
KRO1 182013Z 24022G27KT 22/03 A2967 RMK A01 T02160027  RH  029%=      5-min Rain = 0
KRO1 182014Z 24026KT 22/03 A2967 RMK A01 T02160026  RH  029%=      5-min Rain = 0
KRO1 182015Z 24022KT 22/03 A2967 RMK A01 T02160027  RH  029%=      5-min Rain = 0
KRO1 182016Z 24025KT 22/03 A2967 RMK A01 T02160028  RH  029%=      5-min Rain = 0
KRO1 182017Z 24025KT 22/03 A2967 RMK A01 T02170026  RH  029%=      5-min Rain = 0
KRO1 182018Z 24021KT 22/03 A2967 RMK A01 T02160027  RH  029%=      5-min Rain = 0
KRO1 182019Z 24020G26KT 22/03 A2967 RMK A01 T02160027  RH  029%=      5-min Rain = 0
KRO1 182020Z 24023KT 22/03 A2966 RMK A01 T02170028  RH  029%=      5-min Rain = 0
KRO1 182021Z 24022KT 22/03 A2966 RMK A01 T02170028  RH  029%=      5-min Rain = 0
KRO1 182022Z 24023KT 22/03 A2966 RMK A01 T02170027  RH  029%=      5-min Rain = 0
KRO1 182023Z 24022G27KT 22/03 A2966 RMK A01 T02170026  RH  028%=      5-min Rain = 0
KRO1 182024Z 24022G30KT 22/03 A2966 RMK A01 T02170028  RH  029%=      5-min Rain = 0
KRO1 182025Z 24023G29KT 22/03 A2966 RMK A01 T02170026  RH  028%=      5-min Rain = 0
KRO1 182026Z 24022KT 22/03 A2966 RMK A01 T02170027  RH  029%=      5-min Rain = 0
KRO1 182027Z 24022KT 22/03 A2966 RMK A01 T02180028  RH  029%=      5-min Rain = 0
KRO1 182028Z 24024G29KT 22/03 A2966 RMK A01 T02180028  RH  029%=      5-min Rain = 0
KRO1 182029Z 24022KT 22/03 A2966 RMK A01 T02180027  RH  028%=      5-min Rain = 0
KRO1 182030Z 25018KT 22/03 A2966 RMK A01 T02180030  RH  029%=      5-min Rain = 0
KRO1 182031Z 24023KT 22/03 A2966 RMK A01 T02190029  RH  029%=      5-min Rain = 0
KRO1 182032Z 24020KT 22/03 A2966 RMK A01 T02190029  RH  029%=      5-min Rain = 0
KRO1 182033Z 25023KT 22/03 A2966 RMK A01 T02190029  RH  029%=      5-min Rain = 0
KRO1 182034Z 24023KT 22/03 A2966 RMK A01 T02190028  RH  028%=      5-min Rain = 0
KRO1 182035Z 24019KT 22/03 A2966 RMK A01 T02200032  RH  029%=      5-min Rain = 0
KRO1 182036Z 25020KT 22/03 A2966 RMK A01 T02200031  RH  029%=      5-min Rain = 0
KRO1 182037Z 24025G32KT 22/03 A2966 RMK A01 T02210030  RH  028%=      5-min Rain = 0
KRO1 182038Z 25025KT 22/03 A2965 RMK A01 T02210027  RH  028%=      5-min Rain = 0
KRO1 182039Z 25021KT 22/03 A2965 RMK A01 T02210029  RH  028%=      5-min Rain = 0
KRO1 182040Z 25024KT 22/03 A2965 RMK A01 T02210029  RH  028%=      5-min Rain = 0
KRO1 182041Z 25024KT 22/03 A2965 RMK A01 T02210027  RH  028%=      5-min Rain = 0
KRO1 182042Z 25021KT 22/03 A2965 RMK A01 T02210029  RH  028%=      5-min Rain = 0
KRO1 182043Z 25022KT 22/03 A2965 RMK A01 T02220029  RH  028%=      5-min Rain = 0
KRO1 182044Z 25021KT 22/03 A2965 RMK A01 T02230030  RH  028%=      5-min Rain = 0
KRO1 182045Z 24022KT 22/03 A2965 RMK A01 T02230029  RH  028%=      5-min Rain = 0
KRO1 182046Z 25022KT 22/03 A2965 RMK A01 T02230028  RH  028%=      5-min Rain = 0
KRO1 182047Z 25025KT 22/03 A2965 RMK A01 T02230028  RH  028%=      5-min Rain = 0
KRO1 182048Z 25023KT 22/03 A2965 RMK A01 T02240028  RH  028%=      5-min Rain = 0
KRO1 182049Z 25022KT 23/03 A2965 RMK A01 T02260030  RH  028%=      5-min Rain = 0
KRO1 182050Z 25022KT 23/03 A2965 RMK A01 T02270031  RH  028%=      5-min Rain = 0
KRO1 182051Z 25020KT 23/03 A2965 RMK A01 T02280032  RH  028%=      5-min Rain = 0
KRO1 182052Z 25022KT 23/03 A2965 RMK A01 T02290031  RH  027%=      5-min Rain = 0
KRO1 182053Z 25023KT 23/03 A2965 RMK A01 T02300031  RH  027%=      5-min Rain = 0
KRO1 182054Z 25023KT 23/03 A2965 RMK A01 T02300030  RH  027%=      5-min Rain = 0
KRO1 182055Z 25022KT 23/03 A2965 RMK A01 T02300031  RH  027%=      5-min Rain = 0
KRO1 182056Z 25027G32KT 23/03 A2965 RMK A01 T02300029  RH  027%=      5-min Rain = 0
KRO1 182057Z 25025G30KT 23/03 A2965 RMK A01 T02300028  RH  027%=      5-min Rain = 0
KRO1 182058Z 25028KT 23/03 A2965 RMK A01 T02290025  RH  026%=      5-min Rain = 0
KRO1 182059Z 24028KT 23/03 A2965 RMK A01 T02280026  RH  026%=      5-min Rain = 0
KRO1 182100Z 24028G35KT 23/03 A2965 RMK A01 T02280026  RH  026%=      5-min Rain = 0
KRO1 182101Z 24029KT 23/02 A2965 RMK A01 T02280024  RH  026%=      5-min Rain = 0
KRO1 182102Z 25028KT 23/02 A2965 RMK A01 T02280023  RH  026%=      5-min Rain = 0
KRO1 182103Z 25029KT 23/02 A2965 RMK A01 T02280022  RH  026%=      5-min Rain = 0
KRO1 182104Z 25027KT 23/02 A2965 RMK A01 T02280022  RH  026%=      5-min Rain = 0
KRO1 182105Z 25027KT 23/02 A2965 RMK A01 T02280022  RH  026%=      5-min Rain = 0
KRO1 182106Z 25029KT 23/02 A2965 RMK A01 T02270024  RH  026%=      5-min Rain = 0
KRO1 182107Z 26024KT 23/02 A2965 RMK A01 T02280023  RH  026%=      5-min Rain = 0
KRO1 182108Z 26023KT 23/02 A2965 RMK A01 T02280024  RH  026%=      5-min Rain = 0
KRO1 182109Z 26024G33KT 23/03 A2965 RMK A01 T02280025  RH  026%=      5-min Rain = 0
KRO1 182110Z 26024G30KT 23/02 A2965 RMK A01 T02290022  RH  026%=      5-min Rain = 0
KRO1 182111Z 26022KT 23/03 A2965 RMK A01 T02280025  RH  026%=      5-min Rain = 0
KRO1 182112Z 26021G27KT 23/02 A2965 RMK A01 T02280024  RH  026%=      5-min Rain = 0
KRO1 182113Z 26025G30KT 23/03 A2965 RMK A01 T02290028  RH  027%=      5-min Rain = 0
KRO1 182114Z 26027G32KT 23/02 A2965 RMK A01 T02300023  RH  026%=      5-min Rain = 0
KRO1 182115Z 26030G36KT 23/02 A2965 RMK A01 T02290022  RH  026%=      5-min Rain = 0
KRO1 182116Z 25028G33KT 23/02 A2965 RMK A01 T02280019  RH  025%=      5-min Rain = 0
KRO1 182117Z 26027G32KT 23/02 A2965 RMK A01 T02280021  RH  026%=      5-min Rain = 0
KRO1 182118Z 26024G29KT 23/02 A2965 RMK A01 T02280022  RH  026%=      5-min Rain = 0
KRO1 182119Z 26027G34KT 23/02 A2966 RMK A01 T02280022  RH  026%=      5-min Rain = 0
KRO1 182120Z 25023KT 23/02 A2966 RMK A01 T02280023  RH  026%=      5-min Rain = 0
KRO1 182121Z 25021KT 23/02 A2966 RMK A01 T02280022  RH  026%=      5-min Rain = 0
KRO1 182122Z 25021KT 23/02 A2966 RMK A01 T02290024  RH  026%=      5-min Rain = 0
KRO1 182123Z 25024KT 23/02 A2966 RMK A01 T02290024  RH  026%=      5-min Rain = 0
KRO1 182124Z 25022G27KT 23/02 A2966 RMK A01 T02290024  RH  026%=      5-min Rain = 0
KRO1 182125Z 25020KT 23/03 A2966 RMK A01 T02290026  RH  026%=      5-min Rain = 0
KRO1 182126Z 25026KT 23/02 A2966 RMK A01 T02300024  RH  026%=      5-min Rain = 0
KRO1 182127Z 25023G28KT 23/02 A2966 RMK A01 T02290023  RH  026%=      5-min Rain = 0
KRO1 182128Z 25025G30KT 23/02 A2966 RMK A01 T02280023  RH  026%=      5-min Rain = 0
KRO1 182129Z 26023KT 23/02 A2965 RMK A01 T02260022  RH  026%=      5-min Rain = 0
KRO1 182130Z 25021KT 23/02 A2965 RMK A01 T02260024  RH  026%=      5-min Rain = 0
KRO1 182131Z 25025KT 23/02 A2965 RMK A01 T02270023  RH  026%=      5-min Rain = 0
KRO1 182132Z 25025KT 23/02 A2965 RMK A01 T02280023  RH  026%=      5-min Rain = 0
KRO1 182133Z 25026KT 23/02 A2965 RMK A01 T02280022  RH  026%=      5-min Rain = 0
KRO1 182134Z 25022KT 23/02 A2966 RMK A01 T02280024  RH  026%=      5-min Rain = 0
KRO1 182135Z 25022KT 23/03 A2965 RMK A01 T02290025  RH  026%=      5-min Rain = 0
KRO1 182136Z 26023KT 23/03 A2966 RMK A01 T02300025  RH  026%=      5-min Rain = 0
KRO1 182137Z 25022G27KT 23/03 A2965 RMK A01 T02300025  RH  026%=      5-min Rain = 0
KRO1 182138Z 26024G29KT 23/02 A2965 RMK A01 T02300024  RH  026%=      5-min Rain = 0
KRO1 182139Z 25024KT 23/02 A2965 RMK A01 T02290023  RH  026%=      5-min Rain = 0
KRO1 182140Z 26026KT 23/02 A2965 RMK A01 T02290024  RH  026%=      5-min Rain = 0
KRO1 182141Z 25021KT 23/02 A2965 RMK A01 T02270024  RH  026%=      5-min Rain = 0
KRO1 182142Z 25028KT 23/02 A2965 RMK A01 T02260024  RH  027%=      5-min Rain = 0
KRO1 182143Z 25024KT 22/02 A2965 RMK A01 T02240022  RH  026%=      5-min Rain = 0
KRO1 182144Z 25023KT 22/02 A2966 RMK A01 T02230024  RH  027%=      5-min Rain = 0
KRO1 182145Z 25022KT 22/02 A2966 RMK A01 T02220023  RH  027%=      5-min Rain = 0
KRO1 182146Z 25026KT 22/02 A2965 RMK A01 T02220023  RH  027%=      5-min Rain = 0
KRO1 182147Z 25028KT 22/02 A2965 RMK A01 T02210022  RH  027%=      5-min Rain = 0
KRO1 182148Z 25027KT 22/02 A2965 RMK A01 T02210021  RH  027%=      5-min Rain = 0
KRO1 182149Z 25024KT 22/02 A2965 RMK A01 T02220021  RH  027%=      5-min Rain = 0
KRO1 182150Z 25023KT 22/02 A2966 RMK A01 T02230022  RH  027%=      5-min Rain = 0
KRO1 182151Z 25022G27KT 23/02 A2965 RMK A01 T02250024  RH  027%=      5-min Rain = 0
KRO1 182152Z 25024KT 23/02 A2965 RMK A01 T02270024  RH  026%=      5-min Rain = 0
KRO1 182153Z 25022KT 23/02 A2965 RMK A01 T02270024  RH  026%=      5-min Rain = 0
KRO1 182154Z 24021KT 23/02 A2965 RMK A01 T02270024  RH  026%=      5-min Rain = 0
KRO1 182155Z 25021KT 23/03 A2965 RMK A01 T02270027  RH  027%=      5-min Rain = 0
KRO1 182156Z 24020KT 23/02 A2965 RMK A01 T02260024  RH  026%=      5-min Rain = 0
KRO1 182157Z 25022KT 23/02 A2965 RMK A01 T02250023  RH  027%=      5-min Rain = 0
KRO1 182158Z 25022KT 22/02 A2965 RMK A01 T02240022  RH  026%=      5-min Rain = 0
KRO1 182159Z 26019G24KT 22/02 A2965 RMK A01 T02230024  RH  027%=      5-min Rain = 0
KRO1 182200Z 26021KT 22/03 A2965 RMK A01 T02220025  RH  027%=      5-min Rain = 0
KRO1 182201Z 25018KT 22/02 A2965 RMK A01 T02210024  RH  027%=      5-min Rain = 0
KRO1 182202Z 24015KT 22/03 A2965 RMK A01 T02210025  RH  028%=      5-min Rain = 0
KRO1 182203Z 24020KT 22/03 A2965 RMK A01 T02210026  RH  028%=      5-min Rain = 0
KRO1 182204Z 25020KT 22/03 A2965 RMK A01 T02210027  RH  028%=      5-min Rain = 0
KRO1 182205Z 25019KT 22/03 A2965 RMK A01 T02200026  RH  028%=      5-min Rain = 0
KRO1 182206Z 25021KT 22/03 A2965 RMK A01 T02200026  RH  028%=      5-min Rain = 0
KRO1 182207Z 25022KT 22/02 A2965 RMK A01 T02200024  RH  028%=      5-min Rain = 0
KRO1 182208Z 25020KT 22/02 A2965 RMK A01 T02200024  RH  028%=      5-min Rain = 0
KRO1 182209Z 25019KT 22/03 A2965 RMK A01 T02190025  RH  028%=      5-min Rain = 0
KRO1 182210Z 24019KT 22/03 A2965 RMK A01 T02190027  RH  028%=      5-min Rain = 0
KRO1 182211Z 24022KT 22/02 A2965 RMK A01 T02190024  RH  028%=      5-min Rain = 0
KRO1 182212Z 24021KT 22/02 A2965 RMK A01 T02190024  RH  028%=      5-min Rain = 0
KRO1 182213Z 25023KT 22/02 A2965 RMK A01 T02190024  RH  028%=      5-min Rain = 0
KRO1 182214Z 25021KT 22/02 A2965 RMK A01 T02190024  RH  028%=      5-min Rain = 0
KRO1 182215Z 25019KT 22/03 A2966 RMK A01 T02180025  RH  028%=      5-min Rain = 0
KRO1 182216Z 25019KT 22/03 A2966 RMK A01 T02180026  RH  028%=      5-min Rain = 0
KRO1 182217Z 25017KT 22/02 A2966 RMK A01 T02170023  RH  028%=      5-min Rain = 0
KRO1 182218Z 25017KT 22/03 A2966 RMK A01 T02180025  RH  028%=      5-min Rain = 0
KRO1 182219Z 24019KT 22/03 A2966 RMK A01 T02170025  RH  028%=      5-min Rain = 0
KRO1 182220Z 25019KT 22/02 A2966 RMK A01 T02170023  RH  028%=      5-min Rain = 0
KRO1 182221Z 25020KT 22/02 A2966 RMK A01 T02170023  RH  028%=      5-min Rain = 0
KRO1 182222Z 25022KT 22/02 A2966 RMK A01 T02170022  RH  028%=      5-min Rain = 0
KRO1 182223Z 26019KT 22/02 A2966 RMK A01 T02170021  RH  027%=      5-min Rain = 0
KRO1 182224Z 26021G26KT 22/02 A2966 RMK A01 T02180022  RH  027%=      5-min Rain = 0
KRO1 182225Z 27015KT 22/02 A2966 RMK A01 T02180023  RH  028%=      5-min Rain = 0
KRO1 182226Z 27018KT 22/02 A2966 RMK A01 T02170024  RH  028%=      5-min Rain = 0
KRO1 182227Z 28017G22KT 22/02 A2966 RMK A01 T02170023  RH  028%=      5-min Rain = 0
KRO1 182228Z 28017KT 22/02 A2966 RMK A01 T02160020  RH  027%=      5-min Rain = 0
KRO1 182229Z 28020G25KT 22/02 A2966 RMK A01 T02150017  RH  027%=      5-min Rain = 0
KRO1 182230Z 27019KT 22/02 A2966 RMK A01 T02150016  RH  027%=      5-min Rain = 0
KRO1 182231Z 27023KT 22/02 A2966 RMK A01 T02150015  RH  027%=      5-min Rain = 0
KRO1 182232Z 27021KT 22/01 A2966 RMK A01 T02150014  RH  026%=      5-min Rain = 0
KRO1 182233Z 27018G23KT 21/02 A2966 RMK A01 T02140016  RH  027%=      5-min Rain = 0
KRO1 182234Z 27018KT 21/02 A2966 RMK A01 T02140016  RH  027%=      5-min Rain = 0
KRO1 182235Z 27019KT 21/01 A2966 RMK A01 T02130014  RH  027%=      5-min Rain = 0
KRO1 182236Z 27017KT 21/02 A2966 RMK A01 T02130015  RH  027%=      5-min Rain = 0
KRO1 182237Z 27020KT 21/02 A2966 RMK A01 T02120015  RH  027%=      5-min Rain = 0
KRO1 182238Z 27019KT 21/01 A2966 RMK A01 T02120011  RH  026%=      5-min Rain = 0
KRO1 182239Z 27019G26KT 21/01 A2966 RMK A01 T02120013  RH  027%=      5-min Rain = 0
KRO1 182240Z 27016G22KT 21/01 A2966 RMK A01 T02130013  RH  027%=      5-min Rain = 0
KRO1 182241Z 27014KT 21/02 A2966 RMK A01 T02120016  RH  027%=      5-min Rain = 0
KRO1 182242Z 27016KT 21/01 A2966 RMK A01 T02120014  RH  027%=      5-min Rain = 0
KRO1 182243Z 27017KT 21/02 A2966 RMK A01 T02120016  RH  027%=      5-min Rain = 0
KRO1 182244Z 27017G22KT 21/01 A2966 RMK A01 T02120014  RH  027%=      5-min Rain = 0
KRO1 182245Z 27016KT 21/02 A2966 RMK A01 T02120015  RH  027%=      5-min Rain = 0
KRO1 182246Z 27020KT 21/02 A2966 RMK A01 T02110015  RH  027%=      5-min Rain = 0
KRO1 182247Z 27015KT 21/02 A2966 RMK A01 T02120016  RH  027%=      5-min Rain = 0
KRO1 182248Z 27015KT 21/02 A2966 RMK A01 T02110018  RH  028%=      5-min Rain = 0
KRO1 182249Z 27015KT 21/02 A2966 RMK A01 T02110017  RH  028%=      5-min Rain = 0
KRO1 182250Z 27016KT 21/02 A2966 RMK A01 T02110017  RH  028%=      5-min Rain = 0
KRO1 182251Z 26013KT 21/02 A2966 RMK A01 T02120019  RH  028%=      5-min Rain = 0
KRO1 182252Z 27014KT 21/02 A2966 RMK A01 T02120021  RH  028%=      5-min Rain = 0
KRO1 182253Z 26015KT 21/02 A2966 RMK A01 T02120020  RH  028%=      5-min Rain = 0
KRO1 182254Z 26017KT 21/02 A2966 RMK A01 T02120020  RH  028%=      5-min Rain = 0
KRO1 182255Z 27017KT 21/02 A2966 RMK A01 T02120019  RH  028%=      5-min Rain = 0
KRO1 182256Z 26015G20KT 21/02 A2966 RMK A01 T02120020  RH  028%=      5-min Rain = 0
KRO1 182257Z 26017KT 21/02 A2966 RMK A01 T02120019  RH  028%=      5-min Rain = 0
KRO1 182258Z 26017KT 21/02 A2966 RMK A01 T02120020  RH  028%=      5-min Rain = 0
KRO1 182259Z 26015G20KT 21/02 A2967 RMK A01 T02110021  RH  028%=      5-min Rain = 0
KRO1 182300Z 27018KT 21/02 A2966 RMK A01 T02100020  RH  028%=      5-min Rain = 0
KRO1 182301Z 27017G24KT 21/02 A2966 RMK A01 T02100019  RH  028%=      5-min Rain = 0
KRO1 182302Z 26017KT 21/02 A2966 RMK A01 T02100019  RH  028%=      5-min Rain = 0
KRO1 182303Z 27018G23KT 21/02 A2966 RMK A01 T02100019  RH  028%=      5-min Rain = 0
KRO1 182304Z 26022KT 21/02 A2966 RMK A01 T02100018  RH  028%=      5-min Rain = 0
KRO1 182305Z 26017KT 21/02 A2966 RMK A01 T02100019  RH  028%=      5-min Rain = 0
KRO1 182306Z 26017KT 21/02 A2966 RMK A01 T02100020  RH  028%=      5-min Rain = 0
KRO1 182307Z 26017KT 21/02 A2966 RMK A01 T02090020  RH  029%=      5-min Rain = 0
KRO1 182308Z 26016KT 21/02 A2966 RMK A01 T02080020  RH  029%=      5-min Rain = 0
KRO1 182309Z 26019KT 21/02 A2966 RMK A01 T02080020  RH  029%=      5-min Rain = 0
KRO1 182310Z 26018KT 21/02 A2966 RMK A01 T02080020  RH  029%=      5-min Rain = 0
KRO1 182311Z 26018KT 21/02 A2966 RMK A01 T02070021  RH  029%=      5-min Rain = 0
KRO1 182312Z 27015KT 21/02 A2966 RMK A01 T02070021  RH  029%=      5-min Rain = 0
KRO1 182313Z 26015KT 21/02 A2966 RMK A01 T02060022  RH  029%=      5-min Rain = 0
KRO1 182314Z 27015G22KT 21/02 A2966 RMK A01 T02060022  RH  029%=      5-min Rain = 0
KRO1 182315Z 26019G25KT 21/02 A2966 RMK A01 T02060020  RH  029%=      5-min Rain = 0
KRO1 182316Z 27016KT 21/02 A2966 RMK A01 T02060021  RH  029%=      5-min Rain = 0
KRO1 182317Z 27015KT 21/02 A2967 RMK A01 T02060023  RH  030%=      5-min Rain = 0
KRO1 182318Z 26015KT 21/02 A2967 RMK A01 T02060023  RH  030%=      5-min Rain = 0
KRO1 182319Z 26016KT 21/02 A2967 RMK A01 T02050023  RH  030%=      5-min Rain = 0
KRO1 182320Z 27015KT 21/02 A2967 RMK A01 T02050022  RH  030%=      5-min Rain = 0
KRO1 182321Z 27015KT 21/02 A2967 RMK A01 T02050023  RH  030%=      5-min Rain = 0
KRO1 182322Z 26017KT 21/02 A2967 RMK A01 T02050023  RH  030%=      5-min Rain = 0
KRO1 182323Z 27018KT 20/02 A2967 RMK A01 T02040024  RH  030%=      5-min Rain = 0
KRO1 182324Z 26017KT 20/02 A2967 RMK A01 T02040024  RH  030%=      5-min Rain = 0
KRO1 182325Z 26018KT 20/02 A2966 RMK A01 T02040024  RH  030%=      5-min Rain = 0
KRO1 182326Z 26016KT 20/03 A2967 RMK A01 T02040025  RH  030%=      5-min Rain = 0
KRO1 182327Z 26016KT 20/03 A2967 RMK A01 T02030025  RH  031%=      5-min Rain = 0
KRO1 182328Z 26015KT 20/03 A2967 RMK A01 T02030026  RH  031%=      5-min Rain = 0
KRO1 182329Z 27017G22KT 20/03 A2967 RMK A01 T02020026  RH  031%=      5-min Rain = 0
KRO1 182330Z 27017G22KT 20/03 A2967 RMK A01 T02010026  RH  031%=      5-min Rain = 0
KRO1 182331Z 27014KT 20/03 A2967 RMK A01 T02010026  RH  031%=      5-min Rain = 0
KRO1 182332Z 26018KT 20/03 A2967 RMK A01 T02010027  RH  032%=      5-min Rain = 0
KRO1 182333Z 26016KT 20/03 A2967 RMK A01 T02000027  RH  032%=      5-min Rain = 0
KRO1 182334Z 26018KT 20/03 A2967 RMK A01 T02000027  RH  032%=      5-min Rain = 0
KRO1 182335Z 26018KT 20/03 A2967 RMK A01 T02000027  RH  032%=      5-min Rain = 0
KRO1 182336Z 26016KT 20/03 A2967 RMK A01 T02000027  RH  032%=      5-min Rain = 0
KRO1 182337Z 26015KT 20/03 A2967 RMK A01 T01990029  RH  032%=      5-min Rain = 0
KRO1 182338Z 26016KT 20/03 A2967 RMK A01 T01980029  RH  032%=      5-min Rain = 0
KRO1 182339Z 26014KT 20/03 A2968 RMK A01 T01980029  RH  032%=      5-min Rain = 0
KRO1 182340Z 26016KT 20/03 A2967 RMK A01 T01980029  RH  033%=      5-min Rain = 0
KRO1 182341Z 26017KT 20/03 A2967 RMK A01 T01970028  RH  033%=      5-min Rain = 0
KRO1 182342Z 26015KT 20/03 A2968 RMK A01 T01970029  RH  033%=      5-min Rain = 0
KRO1 182343Z 26014KT 20/03 A2968 RMK A01 T01970030  RH  033%=      5-min Rain = 0
KRO1 182344Z 26015KT 20/03 A2968 RMK A01 T01960030  RH  033%=      5-min Rain = 0
KRO1 182345Z 27016G21KT 20/03 A2968 RMK A01 T01960030  RH  033%=      5-min Rain = 0
KRO1 182346Z 27015KT 20/03 A2968 RMK A01 T01950030  RH  033%=      5-min Rain = 0
KRO1 182347Z 27012KT 20/03 A2968 RMK A01 T01950031  RH  034%=      5-min Rain = 0
KRO1 182348Z 26016G21KT 20/03 A2968 RMK A01 T01950031  RH  034%=      5-min Rain = 0
KRO1 182349Z 26019KT 20/03 A2968 RMK A01 T01950030  RH  034%=      5-min Rain = 0
KRO1 182350Z 26016KT 20/03 A2968 RMK A01 T01950031  RH  033%=      5-min Rain = 0
KRO1 182351Z 26014KT 20/03 A2968 RMK A01 T01950031  RH  034%=      5-min Rain = 0
KRO1 182352Z 26015KT 19/03 A2968 RMK A01 T01940032  RH  034%=      5-min Rain = 0
KRO1 182353Z 26016KT 19/03 A2968 RMK A01 T01930031  RH  034%=      5-min Rain = 0
KRO1 182354Z 26015KT 19/03 A2968 RMK A01 T01930031  RH  034%=      5-min Rain = 0
KRO1 182355Z 26015KT 19/03 A2968 RMK A01 T01940031  RH  034%=      5-min Rain = 0
KRO1 182356Z 26016KT 19/03 A2968 RMK A01 T01930031  RH  034%=      5-min Rain = 0
KRO1 182357Z 26016KT 19/03 A2968 RMK A01 T01940031  RH  034%=      5-min Rain = 0
KRO1 182358Z 26013KT 19/03 A2968 RMK A01 T01930032  RH  034%=      5-min Rain = 0
KRO1 182359Z 25014KT 19/03 A2968 RMK A01 T01920033  RH  035%=      5-min Rain = 0
KRO1 190000Z 26015KT 19/03 A2968 RMK A01 T01920032  RH  035%=      5-min Rain = 0
KRO1 190001Z 26017KT 19/03 A2968 RMK A01 T01920032  RH  035%=      5-min Rain = 0
KRO1 190002Z 26017KT 19/03 A2968 RMK A01 T01910031  RH  034%=      5-min Rain = 0
KRO1 190003Z 26016KT 19/03 A2968 RMK A01 T01910031  RH  034%=      5-min Rain = 0
KRO1 190004Z 26015G22KT 19/03 A2968 RMK A01 T01910031  RH  035%=      5-min Rain = 0
KRO1 190005Z 26018KT 19/03 A2968 RMK A01 T01910030  RH  034%=      5-min Rain = 0
KRO1 190006Z 26016KT 19/03 A2968 RMK A01 T01910030  RH  034%=      5-min Rain = 0
KRO1 190007Z 26016KT 19/03 A2968 RMK A01 T01910030  RH  034%=      5-min Rain = 0
KRO1 190008Z 26018KT 19/03 A2968 RMK A01 T01900030  RH  034%=      5-min Rain = 0
KRO1 190009Z 27018KT 19/03 A2968 RMK A01 T01900029  RH  034%=      5-min Rain = 0
KRO1 190010Z 26020KT 19/03 A2968 RMK A01 T01910027  RH  034%=      5-min Rain = 0
KRO1 190011Z 26017KT 19/03 A2968 RMK A01 T01910028  RH  034%=      5-min Rain = 0
KRO1 190012Z 26018KT 19/03 A2968 RMK A01 T01910028  RH  034%=      5-min Rain = 0
KRO1 190013Z 26018KT 19/03 A2969 RMK A01 T01900027  RH  034%=      5-min Rain = 0
KRO1 190014Z 26019KT 19/03 A2969 RMK A01 T01900026  RH  034%=      5-min Rain = 0
KRO1 190015Z 26017KT 19/03 A2969 RMK A01 T01900027  RH  034%=      5-min Rain = 0
KRO1 190016Z 26019KT 19/03 A2969 RMK A01 T01900025  RH  033%=      5-min Rain = 0
KRO1 190017Z 27018KT 19/02 A2969 RMK A01 T01900022  RH  033%=      5-min Rain = 0
KRO1 190018Z 27018KT 19/02 A2969 RMK A01 T01900022  RH  032%=      5-min Rain = 0
KRO1 190019Z 27019G24KT 19/02 A2969 RMK A01 T01900021  RH  032%=      5-min Rain = 0
KRO1 190020Z 27018G23KT 19/02 A2969 RMK A01 T01900020  RH  032%=      5-min Rain = 0
KRO1 190021Z 27018KT 19/02 A2969 RMK A01 T01900019  RH  032%=      5-min Rain = 0
KRO1 190022Z 27016KT 19/02 A2969 RMK A01 T01900020  RH  032%=      5-min Rain = 0
KRO1 190023Z 27015G20KT 19/02 A297 RMK A01 T01890020  RH  032%=      5-min Rain = 0
KRO1 190024Z 27019KT 19/02 A297 RMK A01 T01890020  RH  032%=      5-min Rain = 0
KRO1 190025Z 27019G25KT 19/02 A297 RMK A01 T01890018  RH  032%=      5-min Rain = 0
KRO1 190026Z 27022G27KT 19/02 A297 RMK A01 T01890015  RH  031%=      5-min Rain = 0
KRO1 190027Z 27022KT 19/01 A2971 RMK A01 T01890014  RH  031%=      5-min Rain = 0
KRO1 190028Z 27020KT 19/01 A2971 RMK A01 T01890013  RH  031%=      5-min Rain = 0
KRO1 190029Z 28027G33KT 19/01 A2971 RMK A01 T01890013  RH  031%=      5-min Rain = 0
KRO1 190030Z 27033G49KT 19/01 A2972 RMK A01 T01890014  RH  031%=      5-min Rain = 0
KRO1 190031Z 27033G39KT 19/03 A2973 RMK A01 T01850033  RH  036%=      5-min Rain = 0
KRO1 190032Z 27036G41KT 18/04 A2973 RMK A01 T01760042  RH  041%=      5-min Rain = 0
KRO1 190033Z 27039G48KT 17/04 A2974 RMK A01 T01700039  RH  042%=      5-min Rain = 0
KRO1 190034Z 27028G33KT 17/04 A2974 RMK A01 T01680040  RH  043%=      5-min Rain = 0
KRO1 190035Z 27025G33KT 17/05 A2974 RMK A01 T01650045  RH  045%=      5-min Rain = 0
KRO1 190036Z 26023G30KT 16/05 A2974 RMK A01 T01640045  RH  045%=      5-min Rain = 0
KRO1 190037Z 26022G27KT 16/05 A2974 RMK A01 T01610047  RH  047%=      5-min Rain = 0
KRO1 190038Z 27027G38KT 16/04 A2975 RMK A01 T01610042  RH  045%=      5-min Rain = 0
KRO1 190039Z 27027G34KT 16/04 A2974 RMK A01 T01620039  RH  044%=      5-min Rain = 0
KRO1 190040Z 27026G31KT 16/04 A2974 RMK A01 T01620043  RH  045%=      5-min Rain = 0
KRO1 190041Z 27028KT 16/05 A2974 RMK A01 T01610045  RH  046%=      5-min Rain = 0
KRO1 190042Z 27022KT 16/05 A2974 RMK A01 T01600046  RH  047%=      5-min Rain = 0
KRO1 190043Z 27020KT 16/05 A2974 RMK A01 T01580047  RH  048%=      5-min Rain = 0
KRO1 190044Z 27020G25KT 16/05 A2974 RMK A01 T01570045  RH  047%=      5-min Rain = 0
KRO1 190045Z 28018KT 16/04 A2973 RMK A01 T01570043  RH  046%=      5-min Rain = 0
KRO1 190046Z 27017KT 16/04 A2973 RMK A01 T01580042  RH  046%=      5-min Rain = 0
KRO1 190047Z 26013KT 16/04 A2973 RMK A01 T01570044  RH  047%=      5-min Rain = 0
KRO1 190048Z 25014KT 16/05 A2973 RMK A01 T01570045  RH  047%=      5-min Rain = 0
KRO1 190049Z 24013KT 16/05 A2973 RMK A01 T01560048  RH  049%=      5-min Rain = 0
KRO1 190050Z 26013KT 15/05 A2973 RMK A01 T01540050  RH  050%=      5-min Rain = 0
KRO1 190051Z 26014KT 15/05 A2973 RMK A01 T01530046  RH  049%=      5-min Rain = 0
KRO1 190052Z 25013KT 15/05 A2973 RMK A01 T01540046  RH  048%=      5-min Rain = 0
KRO1 190053Z 25014KT 15/05 A2973 RMK A01 T01540047  RH  049%=      5-min Rain = 0
KRO1 190054Z 25014KT 15/05 A2973 RMK A01 T01540045  RH  048%=      5-min Rain = 0
KRO1 190055Z 25012KT 15/04 A2973 RMK A01 T01540044  RH  048%=      5-min Rain = 0
KRO1 190056Z 24012KT 15/05 A2974 RMK A01 T01540045  RH  048%=      5-min Rain = 0
KRO1 190057Z 24014KT 15/04 A2974 RMK A01 T01530044  RH  048%=      5-min Rain = 0
KRO1 190058Z 24016KT 15/04 A2975 RMK A01 T01530041  RH  047%=      5-min Rain = 0
KRO1 190059Z 24015KT 15/04 A2975 RMK A01 T01540042  RH  047%=      5-min Rain = 0
KRO1 190100Z 25018KT 16/04 A2974 RMK A01 T01550035  RH  045%=      5-min Rain = 0
KRO1 190101Z 24021G27KT 16/03 A2974 RMK A01 T01580034  RH  043%=      5-min Rain = 0
KRO1 190102Z 25028G36KT 16/02 A2974 RMK A01 T01610016  RH  037%=      5-min Rain = 0
KRO1 190103Z 26027G34KT 17/01 A2974 RMK A01 T01660013  RH  036%=      5-min Rain = 0
KRO1 190104Z 26030G36KT 17/00 A2973 RMK A01 T01680002  RH  032%=      5-min Rain = 0
KRO1 190105Z 25022G27KT 17/M00 A2973 RMK A01 T01711001  RH  031%=      5-min Rain = 0
KRO1 190106Z 24019KT 17/01 A2973 RMK A01 T01720005  RH  032%=      5-min Rain = 0
KRO1 190107Z 25021G26KT 17/01 A2973 RMK A01 T01710005  RH  033%=      5-min Rain = 0
KRO1 190108Z 25023G30KT 17/00 A2973 RMK A01 T01700002  RH  032%=      5-min Rain = 0
KRO1 190109Z 27024KT 17/M00 A2973 RMK A01 T01701002  RH  031%=      5-min Rain = 0
KRO1 190110Z 28023G30KT 17/M02 A2972 RMK A01 T01711018  RH  028%=      5-min Rain = 0
KRO1 190111Z 26022KT 18/M03 A2972 RMK A01 T01751027  RH  025%=      5-min Rain = 0
KRO1 190112Z 25016KT 18/M02 A2972 RMK A01 T01761019  RH  026%=      5-min Rain = 0
KRO1 190113Z 26019G27KT 18/M01 A2972 RMK A01 T01751012  RH  028%=      5-min Rain = 0
KRO1 190114Z 25021KT 17/M01 A2973 RMK A01 T01741013  RH  028%=      5-min Rain = 0
KRO1 190115Z 23024KT 17/M02 A2972 RMK A01 T01741015  RH  028%=      5-min Rain = 0
KRO1 190116Z 25029G35KT 17/M02 A2972 RMK A01 T01741018  RH  027%=      5-min Rain = 0
KRO1 190117Z 25029G34KT 18/M02 A2973 RMK A01 T01751018  RH  027%=      5-min Rain = 0
KRO1 190118Z 26024KT 18/M02 A2973 RMK A01 T01751017  RH  027%=      5-min Rain = 0
KRO1 190119Z 26023G28KT 18/M02 A2973 RMK A01 T01751017  RH  027%=      5-min Rain = 0
KRO1 190120Z 26022G29KT 18/M02 A2973 RMK A01 T01751016  RH  027%=      5-min Rain = 0
KRO1 190121Z 26023G30KT 18/M02 A2973 RMK A01 T01751019  RH  027%=      5-min Rain = 0
KRO1 190122Z 26029G34KT 18/M02 A2972 RMK A01 T01751024  RH  026%=      5-min Rain = 0
KRO1 190123Z 26023KT 18/M03 A2972 RMK A01 T01761025  RH  025%=      5-min Rain = 0
KRO1 190124Z 27023KT 18/M03 A2972 RMK A01 T01751026  RH  025%=      5-min Rain = 0
KRO1 190125Z 27022G29KT 18/M03 A2973 RMK A01 T01751027  RH  025%=      5-min Rain = 0
KRO1 190126Z 28019KT 18/M03 A2973 RMK A01 T01751025  RH  025%=      5-min Rain = 0
KRO1 190127Z 27021KT 18/M03 A2973 RMK A01 T01751027  RH  025%=      5-min Rain = 0
KRO1 190128Z 27022G30KT 18/M03 A2973 RMK A01 T01751029  RH  025%=      5-min Rain = 0
KRO1 190129Z 28026KT 18/M03 A2973 RMK A01 T01761030  RH  024%=      5-min Rain = 0
KRO1 190130Z 28026KT 18/M03 A2973 RMK A01 T01761033  RH  024%=      5-min Rain = 0
KRO1 190131Z 28023KT 18/M04 A2973 RMK A01 T01771035  RH  023%=      5-min Rain = 0
KRO1 190132Z 28022G30KT 18/M03 A2972 RMK A01 T01771034  RH  023%=      5-min Rain = 0
KRO1 190133Z 27022G27KT 18/M03 A2972 RMK A01 T01771034  RH  023%=      5-min Rain = 0
KRO1 190134Z 27021KT 18/M03 A2973 RMK A01 T01771034  RH  024%=      5-min Rain = 0
KRO1 190135Z 27020KT 18/M03 A2973 RMK A01 T01761032  RH  024%=      5-min Rain = 0
KRO1 190136Z 28023KT 18/M03 A2973 RMK A01 T01751034  RH  024%=      5-min Rain = 0
KRO1 190137Z 28021KT 18/M04 A2972 RMK A01 T01761038  RH  023%=      5-min Rain = 0
KRO1 190138Z 30027G34KT 18/M03 A2971 RMK A01 T01761033  RH  024%=      5-min Rain = 0
KRO1 190139Z 28022KT 17/M03 A2971 RMK A01 T01741034  RH  024%=      5-min Rain = 0
KRO1 190140Z 28028G35KT 17/M03 A2971 RMK A01 T01741034  RH  024%=      5-min Rain = 0
KRO1 190141Z 27023G31KT 17/M04 A297 RMK A01 T01731038  RH  023%=      5-min Rain = 0
KRO1 190142Z 27020G25KT 17/M04 A297 RMK A01 T01741040  RH  023%=      5-min Rain = 0
KRO1 190143Z 25021KT 17/M04 A297 RMK A01 T01741042  RH  023%=      5-min Rain = 0
KRO1 190144Z 25019KT 17/M04 A297 RMK A01 T01731039  RH  023%=      5-min Rain = 0
KRO1 190145Z 25019KT 17/M04 A297 RMK A01 T01721039  RH  023%=      5-min Rain = 0
KRO1 190146Z 26019KT 17/M04 A297 RMK A01 T01711036  RH  024%=      5-min Rain = 0
KRO1 190147Z 26019KT 17/M04 A297 RMK A01 T01691037  RH  024%=      5-min Rain = 0
KRO1 190148Z 26020KT 17/M04 A297 RMK A01 T01681036  RH  024%=      5-min Rain = 0
KRO1 190149Z 26018KT 17/M04 A2971 RMK A01 T01681035  RH  025%=      5-min Rain = 0
KRO1 190150Z 26019KT 17/M04 A2971 RMK A01 T01661035  RH  025%=      5-min Rain = 0
KRO1 190151Z 26017KT 17/M03 A2971 RMK A01 T01651034  RH  025%=      5-min Rain = 0
KRO1 190152Z 26018KT 16/M03 A2971 RMK A01 T01641034  RH  026%=      5-min Rain = 0
KRO1 190153Z 26018KT 16/M03 A2971 RMK A01 T01631034  RH  026%=      5-min Rain = 0
KRO1 190154Z 26015KT 16/M03 A2971 RMK A01 T01621033  RH  026%=      5-min Rain = 0
KRO1 190155Z 26015KT 16/M03 A2971 RMK A01 T01611032  RH  026%=      5-min Rain = 0
KRO1 190156Z 26017KT 16/M03 A2972 RMK A01 T01601033  RH  026%=      5-min Rain = 0
KRO1 190157Z 26018KT 16/M03 A2972 RMK A01 T01601033  RH  026%=      5-min Rain = 0
KRO1 190158Z 26014KT 16/M03 A2972 RMK A01 T01611032  RH  026%=      5-min Rain = 0
KRO1 190159Z 26016KT 16/M03 A2972 RMK A01 T01601031  RH  027%=      5-min Rain = 0
KRO1 190200Z 26015KT 16/M03 A2972 RMK A01 T01591031  RH  027%=      5-min Rain = 0
KRO1 190201Z 26016KT 16/M03 A2972 RMK A01 T01591031  RH  027%=      5-min Rain = 0
KRO1 190202Z 26016KT 16/M03 A2972 RMK A01 T01591030  RH  027%=      5-min Rain = 0
KRO1 190203Z 25017KT 16/M03 A2973 RMK A01 T01581031  RH  027%=      5-min Rain = 0
KRO1 190204Z 26017KT 16/M03 A2973 RMK A01 T01571031  RH  027%=      5-min Rain = 0
KRO1 190205Z 26017KT 16/M03 A2973 RMK A01 T01571032  RH  027%=      5-min Rain = 0
KRO1 190206Z 25017KT 16/M03 A2973 RMK A01 T01571032  RH  027%=      5-min Rain = 0
KRO1 190207Z 25017KT 16/M03 A2973 RMK A01 T01571033  RH  027%=      5-min Rain = 0
KRO1 190208Z 26018KT 16/M03 A2973 RMK A01 T01581034  RH  027%=      5-min Rain = 0
KRO1 190209Z 25016KT 16/M03 A2973 RMK A01 T01581034  RH  026%=      5-min Rain = 0
KRO1 190210Z 25019KT 16/M04 A2973 RMK A01 T01571035  RH  026%=      5-min Rain = 0
KRO1 190211Z 25018KT 16/M04 A2973 RMK A01 T01581037  RH  026%=      5-min Rain = 0
KRO1 190212Z 25017KT 16/M04 A2972 RMK A01 T01591035  RH  026%=      5-min Rain = 0
KRO1 190213Z 25016KT 16/M04 A2972 RMK A01 T01581035  RH  026%=      5-min Rain = 0
KRO1 190214Z 25016KT 16/M04 A2972 RMK A01 T01571035  RH  027%=      5-min Rain = 0
KRO1 190215Z 25017KT 16/M04 A2972 RMK A01 T01571035  RH  027%=      5-min Rain = 0
KRO1 190216Z 25018KT 16/M04 A2972 RMK A01 T01561036  RH  026%=      5-min Rain = 0
KRO1 190217Z 25017KT 16/M04 A2973 RMK A01 T01571036  RH  026%=      5-min Rain = 0
KRO1 190218Z 25016KT 16/M04 A2973 RMK A01 T01561035  RH  027%=      5-min Rain = 0
KRO1 190219Z 25017KT 16/M03 A2973 RMK A01 T01551034  RH  027%=      5-min Rain = 0
KRO1 190220Z 25016KT 16/M04 A2973 RMK A01 T01551035  RH  027%=      5-min Rain = 0
KRO1 190221Z 25019KT 16/M03 A2973 RMK A01 T01551034  RH  027%=      5-min Rain = 0
KRO1 190222Z 25018KT 16/M04 A2973 RMK A01 T01551036  RH  027%=      5-min Rain = 0
KRO1 190223Z 25019KT 16/M04 A2973 RMK A01 T01551035  RH  027%=      5-min Rain = 0
KRO1 190224Z 25017KT 16/M04 A2973 RMK A01 T01551035  RH  027%=      5-min Rain = 0
KRO1 190225Z 24020KT 15/M03 A2973 RMK A01 T01541034  RH  027%=      5-min Rain = 0
KRO1 190226Z 24020KT 15/M04 A2973 RMK A01 T01541035  RH  027%=      5-min Rain = 0
KRO1 190227Z 24020KT 15/M04 A2974 RMK A01 T01541035  RH  027%=      5-min Rain = 0
KRO1 190228Z 24019KT 15/M03 A2974 RMK A01 T01531034  RH  027%=      5-min Rain = 0
KRO1 190229Z 24018KT 15/M04 A2973 RMK A01 T01531035  RH  027%=      5-min Rain = 0
KRO1 190230Z 24018KT 15/M03 A2974 RMK A01 T01531034  RH  027%=      5-min Rain = 0
KRO1 190231Z 24017KT 15/M03 A2973 RMK A01 T01521034  RH  028%=      5-min Rain = 0
KRO1 190232Z 24018KT 15/M03 A2973 RMK A01 T01511034  RH  028%=      5-min Rain = 0
KRO1 190233Z 24019KT 15/M03 A2973 RMK A01 T01511034  RH  028%=      5-min Rain = 0
KRO1 190234Z 24019KT 15/M03 A2973 RMK A01 T01511034  RH  028%=      5-min Rain = 0
KRO1 190235Z 24017KT 15/M03 A2973 RMK A01 T01511034  RH  028%=      5-min Rain = 0
KRO1 190236Z 24017KT 15/M03 A2973 RMK A01 T01501034  RH  028%=      5-min Rain = 0
KRO1 190237Z 24017KT 15/M03 A2973 RMK A01 T01501033  RH  028%=      5-min Rain = 0
KRO1 190238Z 24018KT 15/M03 A2973 RMK A01 T01491033  RH  028%=      5-min Rain = 0
KRO1 190239Z 24018KT 15/M04 A2974 RMK A01 T01491035  RH  028%=      5-min Rain = 0
KRO1 190240Z 24018KT 15/M03 A2974 RMK A01 T01491034  RH  028%=      5-min Rain = 0
KRO1 190241Z 25017KT 15/M03 A2974 RMK A01 T01491033  RH  028%=      5-min Rain = 0
KRO1 190242Z 24017KT 15/M03 A2974 RMK A01 T01481033  RH  029%=      5-min Rain = 0
KRO1 190243Z 24018G23KT 15/M03 A2974 RMK A01 T01471033  RH  029%=      5-min Rain = 0
KRO1 190244Z 25021KT 15/M03 A2974 RMK A01 T01481034  RH  028%=      5-min Rain = 0
KRO1 190245Z 24021KT 15/M04 A2974 RMK A01 T01491035  RH  028%=      5-min Rain = 0
KRO1 190246Z 25020KT 15/M04 A2974 RMK A01 T01501036  RH  028%=      5-min Rain = 0
KRO1 190247Z 25021KT 15/M04 A2974 RMK A01 T01501035  RH  028%=      5-min Rain = 0
KRO1 190248Z 25019KT 15/M04 A2974 RMK A01 T01511036  RH  027%=      5-min Rain = 0
KRO1 190249Z 25018KT 15/M04 A2974 RMK A01 T01501035  RH  028%=      5-min Rain = 0
KRO1 190250Z 25020KT 15/M04 A2974 RMK A01 T01501035  RH  028%=      5-min Rain = 0
KRO1 190251Z 25021KT 15/M04 A2974 RMK A01 T01501035  RH  028%=      5-min Rain = 0
KRO1 190252Z 25019KT 15/M04 A2974 RMK A01 T01501035  RH  028%=      5-min Rain = 0
KRO1 190253Z 25022KT 15/M04 A2974 RMK A01 T01501035  RH  028%=      5-min Rain = 0
KRO1 190254Z 25020G25KT 15/M04 A2974 RMK A01 T01501036  RH  028%=      5-min Rain = 0
KRO1 190255Z 25021KT 15/M03 A2974 RMK A01 T01501034  RH  028%=      5-min Rain = 0
KRO1 190256Z 25020KT 15/M04 A2974 RMK A01 T01491035  RH  028%=      5-min Rain = 0
KRO1 190257Z 26020KT 15/M03 A2974 RMK A01 T01491034  RH  028%=      5-min Rain = 0
KRO1 190258Z 26020G25KT 15/M03 A2974 RMK A01 T01491033  RH  028%=      5-min Rain = 0
KRO1 190259Z 25022KT 15/M03 A2974 RMK A01 T01491033  RH  028%=      5-min Rain = 0
KRO1 190300Z 26021KT 15/M03 A2974 RMK A01 T01491033  RH  028%=      5-min Rain = 0
KRO1 190301Z 26022KT 15/M03 A2974 RMK A01 T01491032  RH  029%=      5-min Rain = 0
KRO1 190302Z 26022KT 15/M03 A2974 RMK A01 T01481032  RH  029%=      5-min Rain = 0
KRO1 190303Z 26024KT 15/M03 A2974 RMK A01 T01481033  RH  028%=      5-min Rain = 0
KRO1 190304Z 26023KT 15/M03 A2974 RMK A01 T01491033  RH  028%=      5-min Rain = 0
KRO1 190305Z 26021G26KT 15/M03 A2974 RMK A01 T01491032  RH  029%=      5-min Rain = 0
KRO1 190306Z 26022G29KT 15/M03 A2975 RMK A01 T01491032  RH  029%=      5-min Rain = 0
KRO1 190307Z 27022KT 15/M03 A2975 RMK A01 T01491032  RH  029%=      5-min Rain = 0
KRO1 190308Z 26033G47KT 15/M03 A2975 RMK A01 T01491030  RH  029%=      5-min Rain = 0
KRO1 190309Z 29038G48KT 14/M02 A2976 RMK A01 T01431016  RH  034%=      5-min Rain = 0
KRO1 190310Z 29034G42KT 13/M01 A2977 RMK A01 T01301006  RH  039%=      5-min Rain = 0
KRO1 190311Z 30035G41KT 12/M00 A2977 RMK A01 T01211002  RH  043%=      5-min Rain = 0
KRO1 190312Z 29036G42KT 12/00 A2977 RMK A01 T01160000  RH  045%=      5-min Rain = 0
KRO1 190313Z 30036G41KT 11/00 A2978 RMK A01 T01130001  RH  046%=      5-min Rain = 0
KRO1 190314Z 30036G44KT 11/00 A2978 RMK A01 T01090001  RH  047%=      5-min Rain = 0
KRO1 190315Z 30034KT 11/00 A2978 RMK A01 T01070001  RH  048%=      5-min Rain = 0
KRO1 190316Z 30032G39KT 11/00 A2979 RMK A01 T01060002  RH  048%=      5-min Rain = 0
KRO1 190317Z 30036G42KT 11/00 A2979 RMK A01 T01050002  RH  049%=      5-min Rain = 0
KRO1 190318Z 30039G47KT 10/00 A2979 RMK A01 T01030001  RH  049%=      5-min Rain = 0
KRO1 190319Z 30036G47KT 10/00 A2979 RMK A01 T01010001  RH  050%=      5-min Rain = 0
KRO1 190320Z 31039KT 10/00 A298 RMK A01 T00990001  RH  050%=      5-min Rain = 0
KRO1 190321Z 32037G43KT 10/00 A2981 RMK A01 T00980001  RH  051%=      5-min Rain = 0
KRO1 190322Z 32036G46KT 10/00 A2982 RMK A01 T00950000  RH  051%=      5-min Rain = 0
KRO1 190323Z 33030G36KT 09/00 A2982 RMK A01 T009200-0  RH  053%=      5-min Rain = 0
KRO1 190324Z 32033KT 09/00 A2982 RMK A01 T00890000  RH  054%=      5-min Rain = 0
KRO1 190325Z 33031G36KT 09/00 A2983 RMK A01 T00880001  RH  054%=      5-min Rain = 0
KRO1 190326Z 33030G36KT 09/00 A2983 RMK A01 T00870001  RH  055%=      5-min Rain = 0
KRO1 190327Z 32034KT 09/00 A2983 RMK A01 T00850001  RH  055%=      5-min Rain = 0
KRO1 190328Z 32030G35KT 08/00 A2983 RMK A01 T00840001  RH  056%=      5-min Rain = 0
KRO1 190329Z 32027KT 08/00 A2983 RMK A01 T00830001  RH  056%=      5-min Rain = 0
KRO1 190330Z 32027KT 08/00 A2984 RMK A01 T00820001  RH  057%=      5-min Rain = 0
KRO1 190331Z 32031G36KT 08/00 A2984 RMK A01 T00810001  RH  057%=      5-min Rain = 0
KRO1 190332Z 32022KT 08/00 A2984 RMK A01 T00810001  RH  057%=      5-min Rain = 0
KRO1 190333Z 33022KT 08/00 A2984 RMK A01 T00800002  RH  058%=      5-min Rain = 0
KRO1 190334Z 33024KT 08/00 A2983 RMK A01 T00790001  RH  058%=      5-min Rain = 0
KRO1 190335Z 33020KT 08/00 A2984 RMK A01 T00790002  RH  058%=      5-min Rain = 0
KRO1 190336Z 33020KT 08/00 A2983 RMK A01 T00780002  RH  058%=      5-min Rain = 0
KRO1 190337Z 33022G28KT 08/00 A2983 RMK A01 T00770001  RH  059%=      5-min Rain = 0
KRO1 190338Z 33020KT 08/00 A2983 RMK A01 T00760001  RH  059%=      5-min Rain = 0
KRO1 190339Z 33023KT 08/00 A2983 RMK A01 T00760002  RH  059%=      5-min Rain = 0
KRO1 190340Z 33021KT 08/00 A2983 RMK A01 T00750001  RH  059%=      5-min Rain = 0
KRO1 190341Z 33023G28KT 07/00 A2983 RMK A01 T00740001  RH  060%=      5-min Rain = 0
KRO1 190342Z 33025G30KT 07/00 A2983 RMK A01 T00740001  RH  060%=      5-min Rain = 0
KRO1 190343Z 33024G31KT 07/00 A2984 RMK A01 T00740001  RH  060%=      5-min Rain = 0
KRO1 190344Z 32023KT 07/00 A2984 RMK A01 T00740001  RH  060%=      5-min Rain = 0
KRO1 190345Z 33025G31KT 07/00 A2984 RMK A01 T00730001  RH  060%=      5-min Rain = 0
KRO1 190346Z 33029KT 07/00 A2984 RMK A01 T00730001  RH  060%=      5-min Rain = 0
KRO1 190347Z 33027KT 07/00 A2984 RMK A01 T00730001  RH  060%=      5-min Rain = 0
KRO1 190348Z 32024KT 07/00 A2984 RMK A01 T00730001  RH  060%=      5-min Rain = 0
KRO1 190349Z 33024G30KT 07/00 A2984 RMK A01 T00720001  RH  061%=      5-min Rain = 0
KRO1 190350Z 33030G37KT 07/00 A2984 RMK A01 T00720001  RH  061%=      5-min Rain = 0
KRO1 190351Z 33029KT 07/00 A2984 RMK A01 T00710001  RH  061%=      5-min Rain = 0
KRO1 190352Z 32027G33KT 07/00 A2984 RMK A01 T00710000  RH  061%=      5-min Rain = 0
KRO1 190353Z 32024G30KT 07/00 A2984 RMK A01 T00700000  RH  061%=      5-min Rain = 0
KRO1 190354Z 33022G27KT 07/00 A2985 RMK A01 T00700001  RH  061%=      5-min Rain = 0
KRO1 190355Z 32024G31KT 07/00 A2985 RMK A01 T00690001  RH  062%=      5-min Rain = 0
KRO1 190356Z 32022G27KT 07/00 A2985 RMK A01 T00690001  RH  062%=      5-min Rain = 0
KRO1 190357Z 32021KT 07/00 A2985 RMK A01 T00690001  RH  062%=      5-min Rain = 0
KRO1 190358Z 32022KT 07/00 A2985 RMK A01 T00680001  RH  062%=      5-min Rain = 0
KRO1 190359Z 32025KT 07/00 A2985 RMK A01 T00680001  RH  062%=      5-min Rain = 0
KRO1 190400Z 33020KT 07/00 A2985 RMK A01 T00680001  RH  062%=      5-min Rain = 0
KRO1 190401Z 32021KT 07/00 A2985 RMK A01 T00670001  RH  062%=      5-min Rain = 0
KRO1 190402Z 32021KT 07/00 A2985 RMK A01 T00670001  RH  063%=      5-min Rain = 0
KRO1 190403Z 32019G25KT 07/00 A2986 RMK A01 T00670001  RH  063%=      5-min Rain = 0
KRO1 190404Z 31023G29KT 07/00 A2986 RMK A01 T00660000  RH  063%=      5-min Rain = 0
KRO1 190405Z 31027KT 07/00 A2986 RMK A01 T006600-0  RH  062%=      5-min Rain = 0
KRO1 190406Z 32030G38KT 07/M00 A2986 RMK A01 T00661001  RH  062%=      5-min Rain = 0
KRO1 190407Z 32028KT 07/M00 A2986 RMK A01 T00661002  RH  062%=      5-min Rain = 0
KRO1 190408Z 32029KT 07/M00 A2987 RMK A01 T00661002  RH  062%=      5-min Rain = 0
KRO1 190409Z 32027KT 07/M00 A2987 RMK A01 T00661003  RH  061%=      5-min Rain = 0
KRO1 190410Z 32025G33KT 07/M00 A2987 RMK A01 T00661003  RH  061%=      5-min Rain = 0
KRO1 190411Z 32029G37KT 07/M00 A2987 RMK A01 T00651004  RH  061%=      5-min Rain = 0
KRO1 190412Z 31030G37KT 07/M00 A2987 RMK A01 T00651004  RH  061%=      5-min Rain = 0
KRO1 190413Z 32029G37KT 07/M00 A2987 RMK A01 T00651004  RH  061%=      5-min Rain = 0
KRO1 190414Z 31028G33KT 07/M01 A2988 RMK A01 T00651005  RH  061%=      5-min Rain = 0
KRO1 190415Z 31026G31KT 07/M01 A2988 RMK A01 T00651005  RH  061%=      5-min Rain = 0
KRO1 190416Z 31025G30KT 06/M01 A2988 RMK A01 T00641005  RH  061%=      5-min Rain = 0
KRO1 190417Z 31027KT 06/M01 A2988 RMK A01 T00641005  RH  061%=      5-min Rain = 0
KRO1 190418Z 31024G29KT 06/M01 A2988 RMK A01 T00641005  RH  062%=      5-min Rain = 0
KRO1 190419Z 31026KT 06/M01 A2989 RMK A01 T00641005  RH  062%=      5-min Rain = 0
KRO1 190420Z 31023G28KT 06/M00 A2989 RMK A01 T00641004  RH  062%=      5-min Rain = 0
KRO1 190421Z 31029G38KT 06/M01 A2989 RMK A01 T00631005  RH  062%=      5-min Rain = 0
KRO1 190422Z 31029KT 06/M01 A2989 RMK A01 T00631005  RH  062%=      5-min Rain = 0
KRO1 190423Z 31026G32KT 06/M01 A2989 RMK A01 T00631005  RH  062%=      5-min Rain = 0
KRO1 190424Z 32024G29KT 06/M01 A299 RMK A01 T00631005  RH  062%=      5-min Rain = 0
KRO1 190425Z 31025G31KT 06/M00 A2989 RMK A01 T00631004  RH  062%=      5-min Rain = 0
KRO1 190426Z 32025KT 06/M00 A299 RMK A01 T00631004  RH  062%=      5-min Rain = 0
KRO1 190427Z 32025KT 06/M00 A299 RMK A01 T00631004  RH  062%=      5-min Rain = 0
KRO1 190428Z 31024G30KT 06/M00 A299 RMK A01 T00631004  RH  062%=      5-min Rain = 0
KRO1 190429Z 32024KT 06/M00 A299 RMK A01 T00631004  RH  062%=      5-min Rain = 0
KRO1 190430Z 32027G32KT 06/M00 A299 RMK A01 T00631004  RH  062%=      5-min Rain = 0
KRO1 190431Z 31024KT 06/M01 A299 RMK A01 T00631005  RH  062%=      5-min Rain = 0
KRO1 190432Z 32023G29KT 06/M01 A299 RMK A01 T00631005  RH  062%=      5-min Rain = 0
KRO1 190433Z 32025G30KT 06/M01 A299 RMK A01 T00631005  RH  062%=      5-min Rain = 0
KRO1 190434Z 32027KT 06/M01 A299 RMK A01 T00631005  RH  062%=      5-min Rain = 0
KRO1 190435Z 32026KT 06/M01 A299 RMK A01 T00631005  RH  062%=      5-min Rain = 0
KRO1 190436Z 32026G31KT 06/M01 A2991 RMK A01 T00631005  RH  062%=      5-min Rain = 0
KRO1 190437Z 32027KT 06/M01 A2991 RMK A01 T00631005  RH  062%=      5-min Rain = 0
KRO1 190438Z 32024G29KT 06/M01 A2991 RMK A01 T00631005  RH  062%=      5-min Rain = 0
KRO1 190439Z 31023G28KT 06/M01 A2991 RMK A01 T00631005  RH  062%=      5-min Rain = 0
KRO1 190440Z 32023KT 06/M01 A2991 RMK A01 T00631005  RH  062%=      5-min Rain = 0
KRO1 190441Z 32025G30KT 06/M01 A2991 RMK A01 T00631005  RH  062%=      5-min Rain = 0
KRO1 190442Z 32027G33KT 06/M01 A2991 RMK A01 T00631005  RH  062%=      5-min Rain = 0
KRO1 190443Z 31022G30KT 06/M01 A2992 RMK A01 T00641005  RH  061%=      5-min Rain = 0
KRO1 190444Z 32026KT 06/M01 A2992 RMK A01 T00641005  RH  061%=      5-min Rain = 0
KRO1 190445Z 32023KT 06/M01 A2992 RMK A01 T00641005  RH  061%=      5-min Rain = 0
KRO1 190446Z 32023KT 06/M01 A2992 RMK A01 T00641005  RH  061%=      5-min Rain = 0
KRO1 190447Z 31024KT 06/M01 A2992 RMK A01 T00641005  RH  061%=      5-min Rain = 0
KRO1 190448Z 32027G34KT 06/M01 A2992 RMK A01 T00641005  RH  061%=      5-min Rain = 0
KRO1 190449Z 32026G31KT 06/M01 A2992 RMK A01 T00641005  RH  061%=      5-min Rain = 0
KRO1 190450Z 32024KT 06/M01 A2993 RMK A01 T00641006  RH  061%=      5-min Rain = 0
KRO1 190451Z 32024G31KT 06/M01 A2993 RMK A01 T00641005  RH  061%=      5-min Rain = 0
KRO1 190452Z 32021KT 06/M01 A2993 RMK A01 T00641005  RH  061%=      5-min Rain = 0
KRO1 190453Z 32024KT 06/M01 A2993 RMK A01 T00641005  RH  061%=      5-min Rain = 0
KRO1 190454Z 31026KT 06/M01 A2993 RMK A01 T00641005  RH  061%=      5-min Rain = 0
KRO1 190455Z 31024G30KT 06/M01 A2993 RMK A01 T00641005  RH  061%=      5-min Rain = 0
KRO1 190456Z 32027KT 06/M01 A2993 RMK A01 T00631005  RH  062%=      5-min Rain = 0
KRO1 190457Z 32025KT 06/M01 A2993 RMK A01 T00631005  RH  062%=      5-min Rain = 0
KRO1 190458Z 32027KT 06/M01 A2993 RMK A01 T00631005  RH  062%=      5-min Rain = 0
KRO1 190459Z 32023G29KT 06/M01 A2994 RMK A01 T00631005  RH  062%=      5-min Rain = 0
KRO1 190500Z 32028KT 06/M01 A2993 RMK A01 T00631005  RH  062%=      5-min Rain = 0
KRO1 190501Z 32027KT 06/M01 A2994 RMK A01 T00631005  RH  062%=      5-min Rain = 0
KRO1 190502Z 32023KT 06/M01 A2994 RMK A01 T00631005  RH  062%=      5-min Rain = 0
KRO1 190503Z 32025G30KT 06/M01 A2994 RMK A01 T00621005  RH  062%=      5-min Rain = 0
KRO1 190504Z 32027KT 06/M00 A2994 RMK A01 T00631004  RH  062%=      5-min Rain = 0
KRO1 190505Z 32029KT 06/M00 A2994 RMK A01 T00621004  RH  062%=      5-min Rain = 0
KRO1 190506Z 32026KT 06/M01 A2994 RMK A01 T00621005  RH  062%=      5-min Rain = 0
KRO1 190507Z 32024KT 06/M00 A2994 RMK A01 T00621004  RH  062%=      5-min Rain = 0
KRO1 190508Z 32020KT 06/M00 A2994 RMK A01 T00621004  RH  063%=      5-min Rain = 0
KRO1 190509Z 32020KT 06/M00 A2994 RMK A01 T00621004  RH  063%=      5-min Rain = 0
KRO1 190510Z 33022KT 06/M00 A2994 RMK A01 T00621004  RH  063%=      5-min Rain = 0
KRO1 190511Z 32021KT 06/M00 A2995 RMK A01 T00611004  RH  063%=      5-min Rain = 0
KRO1 190512Z 33019KT 06/M00 A2994 RMK A01 T00621004  RH  063%=      5-min Rain = 0
KRO1 190513Z 33020KT 06/M00 A2995 RMK A01 T00611004  RH  063%=      5-min Rain = 0
KRO1 190514Z 32021G26KT 06/M00 A2995 RMK A01 T00611004  RH  063%=      5-min Rain = 0
KRO1 190515Z 32023G29KT 06/M00 A2995 RMK A01 T00611004  RH  063%=      5-min Rain = 0
KRO1 190516Z 33024KT 06/M00 A2995 RMK A01 T00611004  RH  063%=      5-min Rain = 0
KRO1 190517Z 33023KT 06/M00 A2995 RMK A01 T00611004  RH  063%=      5-min Rain = 0
KRO1 190518Z 32024G30KT 06/M00 A2995 RMK A01 T00611004  RH  063%=      5-min Rain = 0
KRO1 190519Z 32027KT 06/M01 A2995 RMK A01 T00611005  RH  063%=      5-min Rain = 0
KRO1 190520Z 33023KT 06/M01 A2995 RMK A01 T00601006  RH  062%=      5-min Rain = 0
KRO1 190521Z 32026G31KT 06/M01 A2995 RMK A01 T00611006  RH  062%=      5-min Rain = 0
KRO1 190522Z 32028G36KT 06/M01 A2995 RMK A01 T00601007  RH  062%=      5-min Rain = 0
KRO1 190523Z 32026KT 06/M01 A2996 RMK A01 T00591008  RH  062%=      5-min Rain = 0
KRO1 190524Z 33027KT 06/M01 A2996 RMK A01 T00591008  RH  062%=      5-min Rain = 0
KRO1 190525Z 32021KT 06/M01 A2996 RMK A01 T00591008  RH  062%=      5-min Rain = 0
KRO1 190526Z 33019G26KT 06/M01 A2996 RMK A01 T00591008  RH  062%=      5-min Rain = 0
KRO1 190527Z 32020G25KT 06/M01 A2996 RMK A01 T00591008  RH  062%=      5-min Rain = 0
KRO1 190528Z 33017KT 06/M01 A2996 RMK A01 T00591007  RH  062%=      5-min Rain = 0
KRO1 190529Z 33024G29KT 06/M01 A2996 RMK A01 T00591008  RH  062%=      5-min Rain = 0
KRO1 190530Z 33022KT 06/M01 A2996 RMK A01 T00591009  RH  062%=      5-min Rain = 0
KRO1 190531Z 32024KT 06/M01 A2996 RMK A01 T00591009  RH  062%=      5-min Rain = 0
KRO1 190532Z 33022KT 06/M01 A2996 RMK A01 T00591009  RH  062%=      5-min Rain = 0
KRO1 190533Z 33025KT 06/M01 A2997 RMK A01 T00591009  RH  062%=      5-min Rain = 0
KRO1 190534Z 32020KT 06/M01 A2997 RMK A01 T00591009  RH  062%=      5-min Rain = 0
KRO1 190535Z 33017G22KT 06/M01 A2997 RMK A01 T00591009  RH  062%=      5-min Rain = 0
KRO1 190536Z 33016G22KT 06/M01 A2997 RMK A01 T00591009  RH  062%=      5-min Rain = 0
KRO1 190537Z 33021KT 06/M01 A2997 RMK A01 T00591008  RH  062%=      5-min Rain = 0
KRO1 190538Z 33020KT 06/M01 A2997 RMK A01 T00591009  RH  062%=      5-min Rain = 0
KRO1 190539Z 33020G25KT 06/M01 A2997 RMK A01 T00591009  RH  062%=      5-min Rain = 0
KRO1 190540Z 33025KT 06/M01 A2997 RMK A01 T00591010  RH  062%=      5-min Rain = 0
KRO1 190541Z 33025KT 06/M01 A2997 RMK A01 T00591010  RH  061%=      5-min Rain = 0
KRO1 190542Z 32025G30KT 06/M01 A2997 RMK A01 T00591010  RH  061%=      5-min Rain = 0
KRO1 190543Z 33026KT 06/M01 A2998 RMK A01 T00591011  RH  061%=      5-min Rain = 0
KRO1 190544Z 33030G35KT 06/M01 A2998 RMK A01 T00581012  RH  061%=      5-min Rain = 0
KRO1 190545Z 33028G33KT 06/M01 A2998 RMK A01 T00571014  RH  060%=      5-min Rain = 0
KRO1 190546Z 33026G31KT 06/M01 A2998 RMK A01 T00571014  RH  061%=      5-min Rain = 0
KRO1 190547Z 33027G33KT 06/M01 A2998 RMK A01 T00561014  RH  061%=      5-min Rain = 0
KRO1 190548Z 32026KT 06/M01 A2998 RMK A01 T00561014  RH  061%=      5-min Rain = 0
KRO1 190549Z 32024KT 06/M01 A2998 RMK A01 T00561014  RH  061%=      5-min Rain = 0
KRO1 190550Z 32026G34KT 06/M01 A2998 RMK A01 T00551014  RH  061%=      5-min Rain = 0
KRO1 190551Z 32028G34KT 06/M01 A2998 RMK A01 T00551014  RH  061%=      5-min Rain = 0
KRO1 190552Z 33026G31KT 06/M01 A2999 RMK A01 T00551014  RH  061%=      5-min Rain = 0
KRO1 190553Z 32024G29KT 06/M02 A2999 RMK A01 T00551015  RH  061%=      5-min Rain = 0
KRO1 190554Z 33025G36KT 06/M01 A2999 RMK A01 T00551014  RH  061%=      5-min Rain = 0
KRO1 190555Z 33025G33KT 06/M02 A2999 RMK A01 T00551015  RH  061%=      5-min Rain = 0
KRO1 190556Z 33025G30KT 06/M02 A2999 RMK A01 T00551015  RH  061%=      5-min Rain = 0
KRO1 190557Z 34028KT 06/M02 A2999 RMK A01 T00551015  RH  061%=      5-min Rain = 0
KRO1 190558Z 33021G28KT 06/M02 A2999 RMK A01 T00551015  RH  061%=      5-min Rain = 0
KRO1 190559Z 34023G28KT 05/M02 A2999 RMK A01 T00541016  RH  061%=      5-min Rain = 0

Page generated in 0.1465 seconds.